<?xml version="1.0" encoding="UTF-8" standalone="no" ?>
<gpx xmlns="http://www.topografix.com/GPX/1/1" xmlns:xsi="http://www.w3.org/2001/XMLSchema-instance" xsi:schemaLocation="http://www.topografix.com/GPX/1/1 http://www.topografix.com/GPX/1/1/gpx.xsd" version="1.1" creator="VisuGPX - https://www.visugpx.com">
  <metadata>
    <name>boucle autour de montferrier</name>
  </metadata>
  <trk>
    <name><![CDATA[boucle autour de montferrier]]></name>
    <extensions>
      <line xmlns="http://www.topografix.com/GPX/gpx_style/0/2">
        <color>0000FF</color>
        <width>4</width>
      </line>
    </extensions>
    <trkseg>
      <trkpt lat="43.65024" lon="3.86589">
        <ele>42.6</ele>
        <time>2022-05-12T12:11:47Z</time>
      </trkpt>
      <trkpt lat="43.64995" lon="3.86584">
        <ele>40.6</ele>
        <time>2022-05-12T12:11:57Z</time>
      </trkpt>
      <trkpt lat="43.64982" lon="3.86596">
        <ele>38.9</ele>
        <time>2022-05-12T12:12:07Z</time>
      </trkpt>
      <trkpt lat="43.64969" lon="3.86617">
        <ele>38.1</ele>
        <time>2022-05-12T12:12:27Z</time>
      </trkpt>
      <trkpt lat="43.64938" lon="3.86655">
        <ele>38.3</ele>
        <time>2022-05-12T12:12:37Z</time>
      </trkpt>
      <trkpt lat="43.64905" lon="3.86691">
        <ele>38.4</ele>
        <time>2022-05-12T12:12:47Z</time>
      </trkpt>
      <trkpt lat="43.64875" lon="3.86726">
        <ele>37.5</ele>
        <time>2022-05-12T12:12:57Z</time>
      </trkpt>
      <trkpt lat="43.64845" lon="3.86764">
        <ele>38.1</ele>
        <time>2022-05-12T12:13:07Z</time>
      </trkpt>
      <trkpt lat="43.64814" lon="3.86799">
        <ele>38.1</ele>
        <time>2022-05-12T12:13:17Z</time>
      </trkpt>
      <trkpt lat="43.64783" lon="3.86826">
        <ele>38.3</ele>
        <time>2022-05-12T12:13:27Z</time>
      </trkpt>
      <trkpt lat="43.64761" lon="3.8684">
        <ele>39.5</ele>
        <time>2022-05-12T12:13:37Z</time>
      </trkpt>
      <trkpt lat="43.64739" lon="3.86843">
        <ele>41.9</ele>
        <time>2022-05-12T12:13:47Z</time>
      </trkpt>
      <trkpt lat="43.64714" lon="3.86842">
        <ele>43</ele>
        <time>2022-05-12T12:13:57Z</time>
      </trkpt>
      <trkpt lat="43.64695" lon="3.86846">
        <ele>42</ele>
        <time>2022-05-12T12:14:07Z</time>
      </trkpt>
      <trkpt lat="43.64685" lon="3.86879">
        <ele>40.3</ele>
        <time>2022-05-12T12:14:17Z</time>
      </trkpt>
      <trkpt lat="43.647" lon="3.86916">
        <ele>39</ele>
        <time>2022-05-12T12:14:37Z</time>
      </trkpt>
      <trkpt lat="43.64739" lon="3.86923">
        <ele>39.2</ele>
        <time>2022-05-12T12:14:47Z</time>
      </trkpt>
      <trkpt lat="43.64737" lon="3.8696">
        <ele>38.2</ele>
        <time>2022-05-12T12:14:57Z</time>
      </trkpt>
      <trkpt lat="43.64731" lon="3.86982">
        <ele>38.4</ele>
        <time>2022-05-12T12:15:07Z</time>
      </trkpt>
      <trkpt lat="43.64728" lon="3.86973">
        <ele>38.8</ele>
        <time>2022-05-12T12:15:17Z</time>
      </trkpt>
      <trkpt lat="43.64722" lon="3.86932">
        <ele>39</ele>
        <time>2022-05-12T12:15:27Z</time>
      </trkpt>
      <trkpt lat="43.64696" lon="3.8692">
        <ele>39</ele>
        <time>2022-05-12T12:15:37Z</time>
      </trkpt>
      <trkpt lat="43.64675" lon="3.86941">
        <ele>39</ele>
        <time>2022-05-12T12:15:47Z</time>
      </trkpt>
      <trkpt lat="43.6467" lon="3.86966">
        <ele>39.1</ele>
        <time>2022-05-12T12:15:57Z</time>
      </trkpt>
      <trkpt lat="43.64669" lon="3.87013">
        <ele>37.9</ele>
        <time>2022-05-12T12:16:07Z</time>
      </trkpt>
      <trkpt lat="43.64708" lon="3.87015">
        <ele>37.2</ele>
        <time>2022-05-12T12:16:17Z</time>
      </trkpt>
      <trkpt lat="43.6475" lon="3.8701">
        <ele>37.6</ele>
        <time>2022-05-12T12:16:27Z</time>
      </trkpt>
      <trkpt lat="43.64772" lon="3.87028">
        <ele>35.4</ele>
        <time>2022-05-12T12:16:37Z</time>
      </trkpt>
      <trkpt lat="43.64771" lon="3.87077">
        <ele>37</ele>
        <time>2022-05-12T12:16:47Z</time>
      </trkpt>
      <trkpt lat="43.64771" lon="3.87127">
        <ele>36.6</ele>
        <time>2022-05-12T12:16:57Z</time>
      </trkpt>
      <trkpt lat="43.64781" lon="3.87187">
        <ele>36.7</ele>
        <time>2022-05-12T12:17:07Z</time>
      </trkpt>
      <trkpt lat="43.6479" lon="3.87247">
        <ele>36.6</ele>
        <time>2022-05-12T12:17:17Z</time>
      </trkpt>
      <trkpt lat="43.64796" lon="3.87282">
        <ele>36.3</ele>
        <time>2022-05-12T12:17:27Z</time>
      </trkpt>
      <trkpt lat="43.6482" lon="3.8732">
        <ele>35.5</ele>
        <time>2022-05-12T12:17:37Z</time>
      </trkpt>
      <trkpt lat="43.64827" lon="3.8735">
        <ele>35.6</ele>
        <time>2022-05-12T12:17:47Z</time>
      </trkpt>
      <trkpt lat="43.64837" lon="3.87389">
        <ele>35.7</ele>
        <time>2022-05-12T12:17:57Z</time>
      </trkpt>
      <trkpt lat="43.64837" lon="3.87434">
        <ele>34.3</ele>
        <time>2022-05-12T12:18:07Z</time>
      </trkpt>
      <trkpt lat="43.6483" lon="3.87477">
        <ele>35.8</ele>
        <time>2022-05-12T12:18:17Z</time>
      </trkpt>
      <trkpt lat="43.64845" lon="3.87518">
        <ele>35.2</ele>
        <time>2022-05-12T12:18:37Z</time>
      </trkpt>
      <trkpt lat="43.64868" lon="3.87565">
        <ele>34.8</ele>
        <time>2022-05-12T12:18:47Z</time>
      </trkpt>
      <trkpt lat="43.64882" lon="3.87608">
        <ele>35.6</ele>
        <time>2022-05-12T12:18:57Z</time>
      </trkpt>
      <trkpt lat="43.64886" lon="3.87659">
        <ele>35.3</ele>
        <time>2022-05-12T12:19:07Z</time>
      </trkpt>
      <trkpt lat="43.64882" lon="3.87734">
        <ele>34.5</ele>
        <time>2022-05-12T12:19:27Z</time>
      </trkpt>
      <trkpt lat="43.64858" lon="3.8776">
        <ele>36</ele>
        <time>2022-05-12T12:19:47Z</time>
      </trkpt>
      <trkpt lat="43.64842" lon="3.87807">
        <ele>36.9</ele>
        <time>2022-05-12T12:19:57Z</time>
      </trkpt>
      <trkpt lat="43.64856" lon="3.87854">
        <ele>35.2</ele>
        <time>2022-05-12T12:20:07Z</time>
      </trkpt>
      <trkpt lat="43.64878" lon="3.87898">
        <ele>34.5</ele>
        <time>2022-05-12T12:20:17Z</time>
      </trkpt>
      <trkpt lat="43.64919" lon="3.87877">
        <ele>31.1</ele>
        <time>2022-05-12T12:20:37Z</time>
      </trkpt>
      <trkpt lat="43.64929" lon="3.87862">
        <ele>31</ele>
        <time>2022-05-12T12:20:57Z</time>
      </trkpt>
      <trkpt lat="43.64933" lon="3.87851">
        <ele>31.2</ele>
        <time>2022-05-12T12:21:17Z</time>
      </trkpt>
      <trkpt lat="43.64938" lon="3.87842">
        <ele>31.5</ele>
        <time>2022-05-12T12:21:27Z</time>
      </trkpt>
      <trkpt lat="43.64944" lon="3.87817">
        <ele>32</ele>
        <time>2022-05-12T12:21:47Z</time>
      </trkpt>
      <trkpt lat="43.64949" lon="3.87787">
        <ele>33.1</ele>
        <time>2022-05-12T12:22:07Z</time>
      </trkpt>
      <trkpt lat="43.64958" lon="3.87793">
        <ele>33.7</ele>
        <time>2022-05-12T12:22:17Z</time>
      </trkpt>
      <trkpt lat="43.64971" lon="3.87764">
        <ele>35</ele>
        <time>2022-05-12T12:22:27Z</time>
      </trkpt>
      <trkpt lat="43.6498" lon="3.87709">
        <ele>35.7</ele>
        <time>2022-05-12T12:22:37Z</time>
      </trkpt>
      <trkpt lat="43.64997" lon="3.87647">
        <ele>35.3</ele>
        <time>2022-05-12T12:22:47Z</time>
      </trkpt>
      <trkpt lat="43.65014" lon="3.87586">
        <ele>36</ele>
        <time>2022-05-12T12:22:57Z</time>
      </trkpt>
      <trkpt lat="43.65029" lon="3.87525">
        <ele>35.1</ele>
        <time>2022-05-12T12:23:07Z</time>
      </trkpt>
      <trkpt lat="43.65046" lon="3.8746">
        <ele>36</ele>
        <time>2022-05-12T12:23:17Z</time>
      </trkpt>
      <trkpt lat="43.65063" lon="3.87397">
        <ele>36.1</ele>
        <time>2022-05-12T12:23:27Z</time>
      </trkpt>
      <trkpt lat="43.6508" lon="3.87342">
        <ele>36.2</ele>
        <time>2022-05-12T12:23:37Z</time>
      </trkpt>
      <trkpt lat="43.65096" lon="3.87281">
        <ele>36.8</ele>
        <time>2022-05-12T12:23:47Z</time>
      </trkpt>
      <trkpt lat="43.6511" lon="3.87224">
        <ele>36</ele>
        <time>2022-05-12T12:23:57Z</time>
      </trkpt>
      <trkpt lat="43.6513" lon="3.87187">
        <ele>37.3</ele>
        <time>2022-05-12T12:24:07Z</time>
      </trkpt>
      <trkpt lat="43.6516" lon="3.87161">
        <ele>37.1</ele>
        <time>2022-05-12T12:24:17Z</time>
      </trkpt>
      <trkpt lat="43.65161" lon="3.87115">
        <ele>37.6</ele>
        <time>2022-05-12T12:24:27Z</time>
      </trkpt>
      <trkpt lat="43.65181" lon="3.87084">
        <ele>40.1</ele>
        <time>2022-05-12T12:24:37Z</time>
      </trkpt>
      <trkpt lat="43.65218" lon="3.87048">
        <ele>37.3</ele>
        <time>2022-05-12T12:24:47Z</time>
      </trkpt>
      <trkpt lat="43.65244" lon="3.87009">
        <ele>37.4</ele>
        <time>2022-05-12T12:24:57Z</time>
      </trkpt>
      <trkpt lat="43.6526" lon="3.86953">
        <ele>36.6</ele>
        <time>2022-05-12T12:25:07Z</time>
      </trkpt>
      <trkpt lat="43.65294" lon="3.86915">
        <ele>39</ele>
        <time>2022-05-12T12:25:17Z</time>
      </trkpt>
      <trkpt lat="43.65342" lon="3.86895">
        <ele>39.2</ele>
        <time>2022-05-12T12:25:27Z</time>
      </trkpt>
      <trkpt lat="43.65379" lon="3.86865">
        <ele>39.6</ele>
        <time>2022-05-12T12:25:37Z</time>
      </trkpt>
      <trkpt lat="43.65427" lon="3.86834">
        <ele>39.6</ele>
        <time>2022-05-12T12:25:47Z</time>
      </trkpt>
      <trkpt lat="43.65468" lon="3.86817">
        <ele>39.9</ele>
        <time>2022-05-12T12:25:57Z</time>
      </trkpt>
      <trkpt lat="43.65508" lon="3.86832">
        <ele>40</ele>
        <time>2022-05-12T12:26:07Z</time>
      </trkpt>
      <trkpt lat="43.6555" lon="3.86822">
        <ele>40.1</ele>
        <time>2022-05-12T12:26:17Z</time>
      </trkpt>
      <trkpt lat="43.65577" lon="3.86814">
        <ele>40.1</ele>
        <time>2022-05-12T12:26:27Z</time>
      </trkpt>
      <trkpt lat="43.65614" lon="3.86796">
        <ele>40.3</ele>
        <time>2022-05-12T12:26:37Z</time>
      </trkpt>
      <trkpt lat="43.65649" lon="3.86779">
        <ele>40.4</ele>
        <time>2022-05-12T12:26:47Z</time>
      </trkpt>
      <trkpt lat="43.65668" lon="3.86814">
        <ele>41</ele>
        <time>2022-05-12T12:26:57Z</time>
      </trkpt>
      <trkpt lat="43.6564" lon="3.86841">
        <ele>41</ele>
        <time>2022-05-12T12:27:07Z</time>
      </trkpt>
      <trkpt lat="43.65632" lon="3.86884">
        <ele>41</ele>
        <time>2022-05-12T12:27:17Z</time>
      </trkpt>
      <trkpt lat="43.65651" lon="3.86937">
        <ele>41</ele>
        <time>2022-05-12T12:27:27Z</time>
      </trkpt>
      <trkpt lat="43.65671" lon="3.86988">
        <ele>42.1</ele>
        <time>2022-05-12T12:27:37Z</time>
      </trkpt>
      <trkpt lat="43.65653" lon="3.87034">
        <ele>43</ele>
        <time>2022-05-12T12:27:57Z</time>
      </trkpt>
      <trkpt lat="43.65617" lon="3.87068">
        <ele>42.8</ele>
        <time>2022-05-12T12:28:17Z</time>
      </trkpt>
      <trkpt lat="43.65585" lon="3.87105">
        <ele>42.9</ele>
        <time>2022-05-12T12:28:27Z</time>
      </trkpt>
      <trkpt lat="43.6556" lon="3.8714">
        <ele>43.4</ele>
        <time>2022-05-12T12:28:37Z</time>
      </trkpt>
      <trkpt lat="43.65568" lon="3.87178">
        <ele>47.1</ele>
        <time>2022-05-12T12:28:47Z</time>
      </trkpt>
      <trkpt lat="43.65592" lon="3.87195">
        <ele>47.9</ele>
        <time>2022-05-12T12:28:57Z</time>
      </trkpt>
      <trkpt lat="43.65634" lon="3.8721">
        <ele>48.2</ele>
        <time>2022-05-12T12:29:07Z</time>
      </trkpt>
      <trkpt lat="43.65667" lon="3.87243">
        <ele>50.2</ele>
        <time>2022-05-12T12:29:17Z</time>
      </trkpt>
      <trkpt lat="43.65681" lon="3.87269">
        <ele>54.4</ele>
        <time>2022-05-12T12:29:27Z</time>
      </trkpt>
      <trkpt lat="43.65695" lon="3.87285">
        <ele>55.5</ele>
        <time>2022-05-12T12:29:37Z</time>
      </trkpt>
      <trkpt lat="43.65722" lon="3.87308">
        <ele>54.5</ele>
        <time>2022-05-12T12:30:17Z</time>
      </trkpt>
      <trkpt lat="43.65741" lon="3.8734">
        <ele>56.1</ele>
        <time>2022-05-12T12:30:37Z</time>
      </trkpt>
      <trkpt lat="43.65752" lon="3.87368">
        <ele>58.9</ele>
        <time>2022-05-12T12:30:47Z</time>
      </trkpt>
      <trkpt lat="43.65764" lon="3.87393">
        <ele>61.3</ele>
        <time>2022-05-12T12:30:57Z</time>
      </trkpt>
      <trkpt lat="43.65777" lon="3.87412">
        <ele>62.3</ele>
        <time>2022-05-12T12:31:07Z</time>
      </trkpt>
      <trkpt lat="43.6579" lon="3.87429">
        <ele>63.8</ele>
        <time>2022-05-12T12:31:17Z</time>
      </trkpt>
      <trkpt lat="43.65801" lon="3.87452">
        <ele>65.6</ele>
        <time>2022-05-12T12:31:27Z</time>
      </trkpt>
      <trkpt lat="43.65807" lon="3.8747">
        <ele>67.3</ele>
        <time>2022-05-12T12:31:37Z</time>
      </trkpt>
      <trkpt lat="43.65819" lon="3.87489">
        <ele>68.4</ele>
        <time>2022-05-12T12:31:47Z</time>
      </trkpt>
      <trkpt lat="43.65836" lon="3.87511">
        <ele>68.9</ele>
        <time>2022-05-12T12:31:57Z</time>
      </trkpt>
      <trkpt lat="43.6585" lon="3.87533">
        <ele>70.5</ele>
        <time>2022-05-12T12:32:07Z</time>
      </trkpt>
      <trkpt lat="43.6586" lon="3.87552">
        <ele>71.7</ele>
        <time>2022-05-12T12:32:17Z</time>
      </trkpt>
      <trkpt lat="43.65868" lon="3.8757">
        <ele>72.7</ele>
        <time>2022-05-12T12:32:27Z</time>
      </trkpt>
      <trkpt lat="43.65877" lon="3.8759">
        <ele>73.4</ele>
        <time>2022-05-12T12:32:37Z</time>
      </trkpt>
      <trkpt lat="43.65883" lon="3.87609">
        <ele>74.4</ele>
        <time>2022-05-12T12:32:47Z</time>
      </trkpt>
      <trkpt lat="43.65888" lon="3.87629">
        <ele>75.8</ele>
        <time>2022-05-12T12:32:57Z</time>
      </trkpt>
      <trkpt lat="43.65893" lon="3.8765">
        <ele>77.8</ele>
        <time>2022-05-12T12:33:07Z</time>
      </trkpt>
      <trkpt lat="43.65896" lon="3.8767">
        <ele>80</ele>
        <time>2022-05-12T12:33:17Z</time>
      </trkpt>
      <trkpt lat="43.65901" lon="3.87691">
        <ele>81.3</ele>
        <time>2022-05-12T12:33:27Z</time>
      </trkpt>
      <trkpt lat="43.65905" lon="3.87717">
        <ele>82.2</ele>
        <time>2022-05-12T12:33:37Z</time>
      </trkpt>
      <trkpt lat="43.65911" lon="3.87742">
        <ele>82.6</ele>
        <time>2022-05-12T12:33:47Z</time>
      </trkpt>
      <trkpt lat="43.65925" lon="3.87774">
        <ele>82.6</ele>
        <time>2022-05-12T12:33:57Z</time>
      </trkpt>
      <trkpt lat="43.65931" lon="3.87806">
        <ele>83</ele>
        <time>2022-05-12T12:34:07Z</time>
      </trkpt>
      <trkpt lat="43.65914" lon="3.87839">
        <ele>81.2</ele>
        <time>2022-05-12T12:34:17Z</time>
      </trkpt>
      <trkpt lat="43.65906" lon="3.87863">
        <ele>78.3</ele>
        <time>2022-05-12T12:34:27Z</time>
      </trkpt>
      <trkpt lat="43.65918" lon="3.87861">
        <ele>80.1</ele>
        <time>2022-05-12T12:34:37Z</time>
      </trkpt>
      <trkpt lat="43.6595" lon="3.879">
        <ele>77.7</ele>
        <time>2022-05-12T12:34:47Z</time>
      </trkpt>
      <trkpt lat="43.65981" lon="3.87936">
        <ele>79.2</ele>
        <time>2022-05-12T12:34:57Z</time>
      </trkpt>
      <trkpt lat="43.66002" lon="3.8797">
        <ele>82.1</ele>
        <time>2022-05-12T12:35:07Z</time>
      </trkpt>
      <trkpt lat="43.66031" lon="3.88002">
        <ele>81</ele>
        <time>2022-05-12T12:35:17Z</time>
      </trkpt>
      <trkpt lat="43.66065" lon="3.88016">
        <ele>82.3</ele>
        <time>2022-05-12T12:35:27Z</time>
      </trkpt>
      <trkpt lat="43.66096" lon="3.88028">
        <ele>82</ele>
        <time>2022-05-12T12:35:37Z</time>
      </trkpt>
      <trkpt lat="43.66126" lon="3.88024">
        <ele>81.5</ele>
        <time>2022-05-12T12:35:47Z</time>
      </trkpt>
      <trkpt lat="43.66165" lon="3.88032">
        <ele>79.1</ele>
        <time>2022-05-12T12:35:57Z</time>
      </trkpt>
      <trkpt lat="43.66214" lon="3.88052">
        <ele>75.7</ele>
        <time>2022-05-12T12:36:07Z</time>
      </trkpt>
      <trkpt lat="43.66269" lon="3.88026">
        <ele>75.7</ele>
        <time>2022-05-12T12:36:17Z</time>
      </trkpt>
      <trkpt lat="43.6631" lon="3.8801">
        <ele>77.2</ele>
        <time>2022-05-12T12:36:27Z</time>
      </trkpt>
      <trkpt lat="43.6634" lon="3.8799">
        <ele>78.8</ele>
        <time>2022-05-12T12:36:37Z</time>
      </trkpt>
      <trkpt lat="43.66357" lon="3.87976">
        <ele>80.6</ele>
        <time>2022-05-12T12:36:47Z</time>
      </trkpt>
      <trkpt lat="43.6638" lon="3.87969">
        <ele>82.6</ele>
        <time>2022-05-12T12:36:57Z</time>
      </trkpt>
      <trkpt lat="43.66403" lon="3.87967">
        <ele>85.1</ele>
        <time>2022-05-12T12:37:07Z</time>
      </trkpt>
      <trkpt lat="43.66428" lon="3.87961">
        <ele>88</ele>
        <time>2022-05-12T12:37:17Z</time>
      </trkpt>
      <trkpt lat="43.66448" lon="3.87952">
        <ele>90.2</ele>
        <time>2022-05-12T12:37:27Z</time>
      </trkpt>
      <trkpt lat="43.66467" lon="3.8794">
        <ele>91.5</ele>
        <time>2022-05-12T12:37:37Z</time>
      </trkpt>
      <trkpt lat="43.66482" lon="3.87929">
        <ele>93.5</ele>
        <time>2022-05-12T12:37:47Z</time>
      </trkpt>
      <trkpt lat="43.66493" lon="3.87914">
        <ele>95.6</ele>
        <time>2022-05-12T12:37:57Z</time>
      </trkpt>
      <trkpt lat="43.66502" lon="3.87904">
        <ele>96.6</ele>
        <time>2022-05-12T12:38:07Z</time>
      </trkpt>
      <trkpt lat="43.66515" lon="3.87911">
        <ele>97.7</ele>
        <time>2022-05-12T12:38:17Z</time>
      </trkpt>
      <trkpt lat="43.66533" lon="3.87932">
        <ele>99.3</ele>
        <time>2022-05-12T12:38:47Z</time>
      </trkpt>
      <trkpt lat="43.66545" lon="3.87941">
        <ele>101.1</ele>
        <time>2022-05-12T12:39:07Z</time>
      </trkpt>
      <trkpt lat="43.66558" lon="3.87935">
        <ele>103.3</ele>
        <time>2022-05-12T12:39:17Z</time>
      </trkpt>
      <trkpt lat="43.66574" lon="3.87943">
        <ele>105</ele>
        <time>2022-05-12T12:39:27Z</time>
      </trkpt>
      <trkpt lat="43.66591" lon="3.87957">
        <ele>105.8</ele>
        <time>2022-05-12T12:39:37Z</time>
      </trkpt>
      <trkpt lat="43.6661" lon="3.87954">
        <ele>107.9</ele>
        <time>2022-05-12T12:39:47Z</time>
      </trkpt>
      <trkpt lat="43.66633" lon="3.87969">
        <ele>108.5</ele>
        <time>2022-05-12T12:39:57Z</time>
      </trkpt>
      <trkpt lat="43.66647" lon="3.8799">
        <ele>109.4</ele>
        <time>2022-05-12T12:40:07Z</time>
      </trkpt>
      <trkpt lat="43.66661" lon="3.88012">
        <ele>111.1</ele>
        <time>2022-05-12T12:40:17Z</time>
      </trkpt>
      <trkpt lat="43.66676" lon="3.88031">
        <ele>113.2</ele>
        <time>2022-05-12T12:40:27Z</time>
      </trkpt>
      <trkpt lat="43.66687" lon="3.88049">
        <ele>114.2</ele>
        <time>2022-05-12T12:40:37Z</time>
      </trkpt>
      <trkpt lat="43.66695" lon="3.88071">
        <ele>115.1</ele>
        <time>2022-05-12T12:40:47Z</time>
      </trkpt>
      <trkpt lat="43.66709" lon="3.88091">
        <ele>117.2</ele>
        <time>2022-05-12T12:40:57Z</time>
      </trkpt>
      <trkpt lat="43.66723" lon="3.88119">
        <ele>118.3</ele>
        <time>2022-05-12T12:41:07Z</time>
      </trkpt>
      <trkpt lat="43.66739" lon="3.88153">
        <ele>117.1</ele>
        <time>2022-05-12T12:41:17Z</time>
      </trkpt>
      <trkpt lat="43.66759" lon="3.88177">
        <ele>117.1</ele>
        <time>2022-05-12T12:41:27Z</time>
      </trkpt>
      <trkpt lat="43.66781" lon="3.88196">
        <ele>117.8</ele>
        <time>2022-05-12T12:41:37Z</time>
      </trkpt>
      <trkpt lat="43.66784" lon="3.88179">
        <ele>119.8</ele>
        <time>2022-05-12T12:41:47Z</time>
      </trkpt>
      <trkpt lat="43.66788" lon="3.8816">
        <ele>121.3</ele>
        <time>2022-05-12T12:41:57Z</time>
      </trkpt>
      <trkpt lat="43.6683" lon="3.88185">
        <ele>118.2</ele>
        <time>2022-05-12T12:42:07Z</time>
      </trkpt>
      <trkpt lat="43.66914" lon="3.88227">
        <ele>109.2</ele>
        <time>2022-05-12T12:42:17Z</time>
      </trkpt>
      <trkpt lat="43.66984" lon="3.88206">
        <ele>109</ele>
        <time>2022-05-12T12:42:27Z</time>
      </trkpt>
      <trkpt lat="43.67026" lon="3.88194">
        <ele>110</ele>
        <time>2022-05-12T12:42:37Z</time>
      </trkpt>
      <trkpt lat="43.67048" lon="3.882">
        <ele>110.7</ele>
        <time>2022-05-12T12:42:47Z</time>
      </trkpt>
      <trkpt lat="43.67075" lon="3.88233">
        <ele>111.5</ele>
        <time>2022-05-12T12:42:57Z</time>
      </trkpt>
      <trkpt lat="43.67096" lon="3.88254">
        <ele>113.1</ele>
        <time>2022-05-12T12:43:17Z</time>
      </trkpt>
      <trkpt lat="43.67117" lon="3.88276">
        <ele>114.7</ele>
        <time>2022-05-12T12:43:27Z</time>
      </trkpt>
      <trkpt lat="43.67135" lon="3.88278">
        <ele>116.6</ele>
        <time>2022-05-12T12:43:37Z</time>
      </trkpt>
      <trkpt lat="43.67156" lon="3.88267">
        <ele>118.2</ele>
        <time>2022-05-12T12:43:47Z</time>
      </trkpt>
      <trkpt lat="43.67179" lon="3.88281">
        <ele>119.3</ele>
        <time>2022-05-12T12:43:57Z</time>
      </trkpt>
      <trkpt lat="43.67204" lon="3.88291">
        <ele>118.9</ele>
        <time>2022-05-12T12:44:07Z</time>
      </trkpt>
      <trkpt lat="43.67226" lon="3.88273">
        <ele>120.1</ele>
        <time>2022-05-12T12:44:17Z</time>
      </trkpt>
      <trkpt lat="43.67247" lon="3.88256">
        <ele>120.6</ele>
        <time>2022-05-12T12:44:27Z</time>
      </trkpt>
      <trkpt lat="43.67267" lon="3.88234">
        <ele>121.9</ele>
        <time>2022-05-12T12:44:37Z</time>
      </trkpt>
      <trkpt lat="43.67294" lon="3.88245">
        <ele>121.4</ele>
        <time>2022-05-12T12:44:47Z</time>
      </trkpt>
      <trkpt lat="43.6733" lon="3.88266">
        <ele>119.3</ele>
        <time>2022-05-12T12:44:57Z</time>
      </trkpt>
      <trkpt lat="43.67355" lon="3.88291">
        <ele>117.7</ele>
        <time>2022-05-12T12:45:07Z</time>
      </trkpt>
      <trkpt lat="43.6736" lon="3.88317">
        <ele>115.7</ele>
        <time>2022-05-12T12:47:07Z</time>
      </trkpt>
      <trkpt lat="43.67353" lon="3.88345">
        <ele>112.7</ele>
        <time>2022-05-12T12:47:27Z</time>
      </trkpt>
      <trkpt lat="43.6737" lon="3.88363">
        <ele>112.2</ele>
        <time>2022-05-12T12:47:37Z</time>
      </trkpt>
      <trkpt lat="43.67399" lon="3.8835">
        <ele>113.4</ele>
        <time>2022-05-12T12:47:47Z</time>
      </trkpt>
      <trkpt lat="43.67426" lon="3.88337">
        <ele>114.2</ele>
        <time>2022-05-12T12:47:57Z</time>
      </trkpt>
      <trkpt lat="43.67456" lon="3.88325">
        <ele>114.9</ele>
        <time>2022-05-12T12:48:07Z</time>
      </trkpt>
      <trkpt lat="43.67484" lon="3.88309">
        <ele>116.7</ele>
        <time>2022-05-12T12:48:17Z</time>
      </trkpt>
      <trkpt lat="43.67502" lon="3.883">
        <ele>117.5</ele>
        <time>2022-05-12T12:48:27Z</time>
      </trkpt>
      <trkpt lat="43.67517" lon="3.8829">
        <ele>118.4</ele>
        <time>2022-05-12T12:48:37Z</time>
      </trkpt>
      <trkpt lat="43.67544" lon="3.88277">
        <ele>118.9</ele>
        <time>2022-05-12T12:48:47Z</time>
      </trkpt>
      <trkpt lat="43.67583" lon="3.88276">
        <ele>119.9</ele>
        <time>2022-05-12T12:48:57Z</time>
      </trkpt>
      <trkpt lat="43.67621" lon="3.88275">
        <ele>119.7</ele>
        <time>2022-05-12T12:49:07Z</time>
      </trkpt>
      <trkpt lat="43.67673" lon="3.88261">
        <ele>120.5</ele>
        <time>2022-05-12T12:49:17Z</time>
      </trkpt>
      <trkpt lat="43.6771" lon="3.88248">
        <ele>121.4</ele>
        <time>2022-05-12T12:49:27Z</time>
      </trkpt>
      <trkpt lat="43.67757" lon="3.88227">
        <ele>119.6</ele>
        <time>2022-05-12T12:49:37Z</time>
      </trkpt>
      <trkpt lat="43.6781" lon="3.88205">
        <ele>118.6</ele>
        <time>2022-05-12T12:49:47Z</time>
      </trkpt>
      <trkpt lat="43.6786" lon="3.88188">
        <ele>119.5</ele>
        <time>2022-05-12T12:49:57Z</time>
      </trkpt>
      <trkpt lat="43.67909" lon="3.88169">
        <ele>117.3</ele>
        <time>2022-05-12T12:50:07Z</time>
      </trkpt>
      <trkpt lat="43.67954" lon="3.88145">
        <ele>117.1</ele>
        <time>2022-05-12T12:50:17Z</time>
      </trkpt>
      <trkpt lat="43.68003" lon="3.88151">
        <ele>118.6</ele>
        <time>2022-05-12T12:50:27Z</time>
      </trkpt>
      <trkpt lat="43.68049" lon="3.88165">
        <ele>119.7</ele>
        <time>2022-05-12T12:50:37Z</time>
      </trkpt>
      <trkpt lat="43.68072" lon="3.88184">
        <ele>120.6</ele>
        <time>2022-05-12T12:50:47Z</time>
      </trkpt>
      <trkpt lat="43.68097" lon="3.88204">
        <ele>121.2</ele>
        <time>2022-05-12T12:50:57Z</time>
      </trkpt>
      <trkpt lat="43.68116" lon="3.88219">
        <ele>121.7</ele>
        <time>2022-05-12T12:51:07Z</time>
      </trkpt>
      <trkpt lat="43.68131" lon="3.88225">
        <ele>121.5</ele>
        <time>2022-05-12T12:51:17Z</time>
      </trkpt>
      <trkpt lat="43.68164" lon="3.88252">
        <ele>121.3</ele>
        <time>2022-05-12T12:51:27Z</time>
      </trkpt>
      <trkpt lat="43.68213" lon="3.88285">
        <ele>120.1</ele>
        <time>2022-05-12T12:51:37Z</time>
      </trkpt>
      <trkpt lat="43.68273" lon="3.88274">
        <ele>119.2</ele>
        <time>2022-05-12T12:51:47Z</time>
      </trkpt>
      <trkpt lat="43.68329" lon="3.88258">
        <ele>119.1</ele>
        <time>2022-05-12T12:51:57Z</time>
      </trkpt>
      <trkpt lat="43.68372" lon="3.88256">
        <ele>120.3</ele>
        <time>2022-05-12T12:52:07Z</time>
      </trkpt>
      <trkpt lat="43.68411" lon="3.88254">
        <ele>120.2</ele>
        <time>2022-05-12T12:52:17Z</time>
      </trkpt>
      <trkpt lat="43.68461" lon="3.88263">
        <ele>119.4</ele>
        <time>2022-05-12T12:52:27Z</time>
      </trkpt>
      <trkpt lat="43.68522" lon="3.88278">
        <ele>116.4</ele>
        <time>2022-05-12T12:52:37Z</time>
      </trkpt>
      <trkpt lat="43.6858" lon="3.88277">
        <ele>116</ele>
        <time>2022-05-12T12:52:47Z</time>
      </trkpt>
      <trkpt lat="43.68631" lon="3.88278">
        <ele>117</ele>
        <time>2022-05-12T12:52:57Z</time>
      </trkpt>
      <trkpt lat="43.68672" lon="3.883">
        <ele>120.6</ele>
        <time>2022-05-12T12:53:07Z</time>
      </trkpt>
      <trkpt lat="43.68703" lon="3.88314">
        <ele>124.2</ele>
        <time>2022-05-12T12:53:17Z</time>
      </trkpt>
      <trkpt lat="43.68727" lon="3.88323">
        <ele>126.8</ele>
        <time>2022-05-12T12:53:27Z</time>
      </trkpt>
      <trkpt lat="43.6876" lon="3.88335">
        <ele>126.3</ele>
        <time>2022-05-12T12:53:37Z</time>
      </trkpt>
      <trkpt lat="43.68815" lon="3.88336">
        <ele>121.4</ele>
        <time>2022-05-12T12:53:47Z</time>
      </trkpt>
      <trkpt lat="43.68901" lon="3.88345">
        <ele>114.1</ele>
        <time>2022-05-12T12:53:57Z</time>
      </trkpt>
      <trkpt lat="43.68941" lon="3.88353">
        <ele>112.4</ele>
        <time>2022-05-12T12:54:07Z</time>
      </trkpt>
      <trkpt lat="43.68983" lon="3.88367">
        <ele>111.8</ele>
        <time>2022-05-12T12:54:17Z</time>
      </trkpt>
      <trkpt lat="43.69024" lon="3.8841">
        <ele>110.2</ele>
        <time>2022-05-12T12:54:27Z</time>
      </trkpt>
      <trkpt lat="43.69067" lon="3.8845">
        <ele>109.7</ele>
        <time>2022-05-12T12:54:37Z</time>
      </trkpt>
      <trkpt lat="43.6912" lon="3.8848">
        <ele>107.3</ele>
        <time>2022-05-12T12:54:47Z</time>
      </trkpt>
      <trkpt lat="43.69165" lon="3.88527">
        <ele>104.2</ele>
        <time>2022-05-12T12:54:57Z</time>
      </trkpt>
      <trkpt lat="43.69208" lon="3.88576">
        <ele>99.2</ele>
        <time>2022-05-12T12:55:07Z</time>
      </trkpt>
      <trkpt lat="43.6924" lon="3.88643">
        <ele>93.3</ele>
        <time>2022-05-12T12:55:17Z</time>
      </trkpt>
      <trkpt lat="43.69268" lon="3.88709">
        <ele>93.8</ele>
        <time>2022-05-12T12:55:27Z</time>
      </trkpt>
      <trkpt lat="43.69275" lon="3.8876">
        <ele>95.7</ele>
        <time>2022-05-12T12:55:37Z</time>
      </trkpt>
      <trkpt lat="43.69283" lon="3.88799">
        <ele>97.6</ele>
        <time>2022-05-12T12:55:47Z</time>
      </trkpt>
      <trkpt lat="43.69293" lon="3.88837">
        <ele>99.6</ele>
        <time>2022-05-12T12:55:57Z</time>
      </trkpt>
      <trkpt lat="43.69307" lon="3.8887">
        <ele>100.3</ele>
        <time>2022-05-12T12:56:07Z</time>
      </trkpt>
      <trkpt lat="43.69327" lon="3.88896">
        <ele>101.9</ele>
        <time>2022-05-12T12:56:17Z</time>
      </trkpt>
      <trkpt lat="43.69352" lon="3.88916">
        <ele>102.4</ele>
        <time>2022-05-12T12:56:27Z</time>
      </trkpt>
      <trkpt lat="43.69379" lon="3.88933">
        <ele>104.5</ele>
        <time>2022-05-12T12:56:37Z</time>
      </trkpt>
      <trkpt lat="43.69404" lon="3.88954">
        <ele>106.5</ele>
        <time>2022-05-12T12:56:47Z</time>
      </trkpt>
      <trkpt lat="43.69426" lon="3.88976">
        <ele>109</ele>
        <time>2022-05-12T12:56:57Z</time>
      </trkpt>
      <trkpt lat="43.69446" lon="3.88998">
        <ele>110.5</ele>
        <time>2022-05-12T12:57:07Z</time>
      </trkpt>
      <trkpt lat="43.69461" lon="3.89029">
        <ele>111.8</ele>
        <time>2022-05-12T12:57:17Z</time>
      </trkpt>
      <trkpt lat="43.69457" lon="3.89064">
        <ele>112.9</ele>
        <time>2022-05-12T12:57:27Z</time>
      </trkpt>
      <trkpt lat="43.69465" lon="3.89099">
        <ele>115.5</ele>
        <time>2022-05-12T12:57:37Z</time>
      </trkpt>
      <trkpt lat="43.69474" lon="3.89127">
        <ele>116.6</ele>
        <time>2022-05-12T12:57:47Z</time>
      </trkpt>
      <trkpt lat="43.69482" lon="3.89153">
        <ele>118</ele>
        <time>2022-05-12T12:57:57Z</time>
      </trkpt>
      <trkpt lat="43.69493" lon="3.89179">
        <ele>118.5</ele>
        <time>2022-05-12T12:58:07Z</time>
      </trkpt>
      <trkpt lat="43.69511" lon="3.89196">
        <ele>119</ele>
        <time>2022-05-12T12:58:17Z</time>
      </trkpt>
      <trkpt lat="43.69527" lon="3.89208">
        <ele>119</ele>
        <time>2022-05-12T12:58:27Z</time>
      </trkpt>
      <trkpt lat="43.69526" lon="3.89194">
        <ele>119</ele>
        <time>2022-05-12T12:58:37Z</time>
      </trkpt>
      <trkpt lat="43.69547" lon="3.89143">
        <ele>119.1</ele>
        <time>2022-05-12T12:58:57Z</time>
      </trkpt>
      <trkpt lat="43.69568" lon="3.89089">
        <ele>119.5</ele>
        <time>2022-05-12T12:59:07Z</time>
      </trkpt>
      <trkpt lat="43.69587" lon="3.89045">
        <ele>121.4</ele>
        <time>2022-05-12T12:59:17Z</time>
      </trkpt>
      <trkpt lat="43.69608" lon="3.89008">
        <ele>122.9</ele>
        <time>2022-05-12T12:59:27Z</time>
      </trkpt>
      <trkpt lat="43.69632" lon="3.88964">
        <ele>124</ele>
        <time>2022-05-12T12:59:37Z</time>
      </trkpt>
      <trkpt lat="43.69669" lon="3.88926">
        <ele>123.8</ele>
        <time>2022-05-12T12:59:47Z</time>
      </trkpt>
      <trkpt lat="43.69718" lon="3.88921">
        <ele>122.8</ele>
        <time>2022-05-12T12:59:57Z</time>
      </trkpt>
      <trkpt lat="43.69765" lon="3.88937">
        <ele>123.5</ele>
        <time>2022-05-12T13:00:07Z</time>
      </trkpt>
      <trkpt lat="43.69811" lon="3.88948">
        <ele>123.4</ele>
        <time>2022-05-12T13:00:17Z</time>
      </trkpt>
      <trkpt lat="43.69855" lon="3.88937">
        <ele>124.2</ele>
        <time>2022-05-12T13:00:27Z</time>
      </trkpt>
      <trkpt lat="43.69901" lon="3.88925">
        <ele>124.3</ele>
        <time>2022-05-12T13:00:37Z</time>
      </trkpt>
      <trkpt lat="43.69944" lon="3.88903">
        <ele>126</ele>
        <time>2022-05-12T13:00:47Z</time>
      </trkpt>
      <trkpt lat="43.69982" lon="3.8888">
        <ele>127.1</ele>
        <time>2022-05-12T13:00:57Z</time>
      </trkpt>
      <trkpt lat="43.70017" lon="3.88862">
        <ele>128.6</ele>
        <time>2022-05-12T13:01:07Z</time>
      </trkpt>
      <trkpt lat="43.70048" lon="3.88842">
        <ele>129.7</ele>
        <time>2022-05-12T13:01:17Z</time>
      </trkpt>
      <trkpt lat="43.70078" lon="3.88819">
        <ele>130.8</ele>
        <time>2022-05-12T13:01:27Z</time>
      </trkpt>
      <trkpt lat="43.70107" lon="3.888">
        <ele>131.9</ele>
        <time>2022-05-12T13:01:37Z</time>
      </trkpt>
      <trkpt lat="43.70137" lon="3.88783">
        <ele>133.9</ele>
        <time>2022-05-12T13:01:47Z</time>
      </trkpt>
      <trkpt lat="43.70163" lon="3.88764">
        <ele>134.8</ele>
        <time>2022-05-12T13:01:57Z</time>
      </trkpt>
      <trkpt lat="43.70182" lon="3.88768">
        <ele>136.7</ele>
        <time>2022-05-12T13:02:07Z</time>
      </trkpt>
      <trkpt lat="43.70208" lon="3.88755">
        <ele>138.5</ele>
        <time>2022-05-12T13:02:17Z</time>
      </trkpt>
      <trkpt lat="43.70232" lon="3.88726">
        <ele>139.7</ele>
        <time>2022-05-12T13:02:27Z</time>
      </trkpt>
      <trkpt lat="43.70261" lon="3.88708">
        <ele>140.6</ele>
        <time>2022-05-12T13:02:37Z</time>
      </trkpt>
      <trkpt lat="43.703" lon="3.88682">
        <ele>141.7</ele>
        <time>2022-05-12T13:02:47Z</time>
      </trkpt>
      <trkpt lat="43.70329" lon="3.88666">
        <ele>142.6</ele>
        <time>2022-05-12T13:02:57Z</time>
      </trkpt>
      <trkpt lat="43.70354" lon="3.88651">
        <ele>143.1</ele>
        <time>2022-05-12T13:03:07Z</time>
      </trkpt>
      <trkpt lat="43.70384" lon="3.88627">
        <ele>144</ele>
        <time>2022-05-12T13:03:17Z</time>
      </trkpt>
      <trkpt lat="43.70404" lon="3.88588">
        <ele>142.9</ele>
        <time>2022-05-12T13:03:27Z</time>
      </trkpt>
      <trkpt lat="43.70432" lon="3.88531">
        <ele>142.4</ele>
        <time>2022-05-12T13:03:37Z</time>
      </trkpt>
      <trkpt lat="43.70446" lon="3.88462">
        <ele>141.7</ele>
        <time>2022-05-12T13:03:47Z</time>
      </trkpt>
      <trkpt lat="43.70467" lon="3.88397">
        <ele>141.6</ele>
        <time>2022-05-12T13:03:57Z</time>
      </trkpt>
      <trkpt lat="43.70478" lon="3.88354">
        <ele>141.4</ele>
        <time>2022-05-12T13:04:07Z</time>
      </trkpt>
      <trkpt lat="43.70485" lon="3.88312">
        <ele>141.2</ele>
        <time>2022-05-12T13:05:57Z</time>
      </trkpt>
      <trkpt lat="43.70501" lon="3.88263">
        <ele>138.4</ele>
        <time>2022-05-12T13:06:17Z</time>
      </trkpt>
      <trkpt lat="43.70518" lon="3.88235">
        <ele>136.3</ele>
        <time>2022-05-12T13:06:27Z</time>
      </trkpt>
      <trkpt lat="43.70536" lon="3.88183">
        <ele>135.8</ele>
        <time>2022-05-12T13:06:37Z</time>
      </trkpt>
      <trkpt lat="43.70556" lon="3.88123">
        <ele>136.6</ele>
        <time>2022-05-12T13:06:47Z</time>
      </trkpt>
      <trkpt lat="43.70572" lon="3.88064">
        <ele>137.1</ele>
        <time>2022-05-12T13:06:57Z</time>
      </trkpt>
      <trkpt lat="43.70587" lon="3.88014">
        <ele>139.8</ele>
        <time>2022-05-12T13:07:07Z</time>
      </trkpt>
      <trkpt lat="43.70595" lon="3.87972">
        <ele>140.9</ele>
        <time>2022-05-12T13:07:17Z</time>
      </trkpt>
      <trkpt lat="43.70608" lon="3.87948">
        <ele>143.6</ele>
        <time>2022-05-12T13:07:27Z</time>
      </trkpt>
      <trkpt lat="43.70632" lon="3.87971">
        <ele>144.2</ele>
        <time>2022-05-12T13:07:37Z</time>
      </trkpt>
      <trkpt lat="43.70657" lon="3.8799">
        <ele>146.7</ele>
        <time>2022-05-12T13:07:47Z</time>
      </trkpt>
      <trkpt lat="43.70677" lon="3.88012">
        <ele>149.7</ele>
        <time>2022-05-12T13:07:57Z</time>
      </trkpt>
      <trkpt lat="43.70698" lon="3.88029">
        <ele>151.1</ele>
        <time>2022-05-12T13:08:07Z</time>
      </trkpt>
      <trkpt lat="43.70716" lon="3.88048">
        <ele>152.5</ele>
        <time>2022-05-12T13:08:17Z</time>
      </trkpt>
      <trkpt lat="43.70734" lon="3.88068">
        <ele>153.7</ele>
        <time>2022-05-12T13:08:27Z</time>
      </trkpt>
      <trkpt lat="43.70753" lon="3.88091">
        <ele>154.1</ele>
        <time>2022-05-12T13:08:37Z</time>
      </trkpt>
      <trkpt lat="43.70773" lon="3.88117">
        <ele>155</ele>
        <time>2022-05-12T13:08:47Z</time>
      </trkpt>
      <trkpt lat="43.70793" lon="3.88143">
        <ele>156.9</ele>
        <time>2022-05-12T13:08:57Z</time>
      </trkpt>
      <trkpt lat="43.70808" lon="3.88167">
        <ele>157.1</ele>
        <time>2022-05-12T13:09:07Z</time>
      </trkpt>
      <trkpt lat="43.70818" lon="3.88165">
        <ele>157.5</ele>
        <time>2022-05-12T13:09:47Z</time>
      </trkpt>
      <trkpt lat="43.70837" lon="3.88164">
        <ele>157.5</ele>
        <time>2022-05-12T13:09:57Z</time>
      </trkpt>
      <trkpt lat="43.7086" lon="3.88143">
        <ele>155.8</ele>
        <time>2022-05-12T13:10:07Z</time>
      </trkpt>
      <trkpt lat="43.70884" lon="3.88113">
        <ele>155.2</ele>
        <time>2022-05-12T13:10:47Z</time>
      </trkpt>
      <trkpt lat="43.70911" lon="3.88082">
        <ele>153.6</ele>
        <time>2022-05-12T13:11:07Z</time>
      </trkpt>
      <trkpt lat="43.70931" lon="3.88069">
        <ele>152.5</ele>
        <time>2022-05-12T13:11:17Z</time>
      </trkpt>
      <trkpt lat="43.70971" lon="3.88024">
        <ele>150.4</ele>
        <time>2022-05-12T13:11:27Z</time>
      </trkpt>
      <trkpt lat="43.7101" lon="3.87982">
        <ele>150.6</ele>
        <time>2022-05-12T13:11:37Z</time>
      </trkpt>
      <trkpt lat="43.71035" lon="3.8792">
        <ele>157.8</ele>
        <time>2022-05-12T13:11:47Z</time>
      </trkpt>
      <trkpt lat="43.71064" lon="3.87857">
        <ele>145.4</ele>
        <time>2022-05-12T13:11:57Z</time>
      </trkpt>
      <trkpt lat="43.71071" lon="3.87792">
        <ele>142.2</ele>
        <time>2022-05-12T13:12:07Z</time>
      </trkpt>
      <trkpt lat="43.71051" lon="3.87741">
        <ele>143</ele>
        <time>2022-05-12T13:12:17Z</time>
      </trkpt>
      <trkpt lat="43.71031" lon="3.87697">
        <ele>142.9</ele>
        <time>2022-05-12T13:12:27Z</time>
      </trkpt>
      <trkpt lat="43.71032" lon="3.8766">
        <ele>140.6</ele>
        <time>2022-05-12T13:12:37Z</time>
      </trkpt>
      <trkpt lat="43.71041" lon="3.87614">
        <ele>138.2</ele>
        <time>2022-05-12T13:12:47Z</time>
      </trkpt>
      <trkpt lat="43.71059" lon="3.87571">
        <ele>132.9</ele>
        <time>2022-05-12T13:12:57Z</time>
      </trkpt>
      <trkpt lat="43.71084" lon="3.87548">
        <ele>128.1</ele>
        <time>2022-05-12T13:13:07Z</time>
      </trkpt>
      <trkpt lat="43.71107" lon="3.87519">
        <ele>123.5</ele>
        <time>2022-05-12T13:13:17Z</time>
      </trkpt>
      <trkpt lat="43.71128" lon="3.87487">
        <ele>119.3</ele>
        <time>2022-05-12T13:13:27Z</time>
      </trkpt>
      <trkpt lat="43.71117" lon="3.87445">
        <ele>117.6</ele>
        <time>2022-05-12T13:13:37Z</time>
      </trkpt>
      <trkpt lat="43.71088" lon="3.87406">
        <ele>114.9</ele>
        <time>2022-05-12T13:13:47Z</time>
      </trkpt>
      <trkpt lat="43.71064" lon="3.8736">
        <ele>113.3</ele>
        <time>2022-05-12T13:13:57Z</time>
      </trkpt>
      <trkpt lat="43.71038" lon="3.8732">
        <ele>112.7</ele>
        <time>2022-05-12T13:14:07Z</time>
      </trkpt>
      <trkpt lat="43.71017" lon="3.87284">
        <ele>112.3</ele>
        <time>2022-05-12T13:14:17Z</time>
      </trkpt>
      <trkpt lat="43.70989" lon="3.87236">
        <ele>110.8</ele>
        <time>2022-05-12T13:14:27Z</time>
      </trkpt>
      <trkpt lat="43.70961" lon="3.87183">
        <ele>108.9</ele>
        <time>2022-05-12T13:14:37Z</time>
      </trkpt>
      <trkpt lat="43.70929" lon="3.87134">
        <ele>107.4</ele>
        <time>2022-05-12T13:14:47Z</time>
      </trkpt>
      <trkpt lat="43.7091" lon="3.87107">
        <ele>109.2</ele>
        <time>2022-05-12T13:14:57Z</time>
      </trkpt>
      <trkpt lat="43.70893" lon="3.87089">
        <ele>110.5</ele>
        <time>2022-05-12T13:15:07Z</time>
      </trkpt>
      <trkpt lat="43.70874" lon="3.87069">
        <ele>112.5</ele>
        <time>2022-05-12T13:16:27Z</time>
      </trkpt>
      <trkpt lat="43.70908" lon="3.87076">
        <ele>112.3</ele>
        <time>2022-05-12T13:16:47Z</time>
      </trkpt>
      <trkpt lat="43.70948" lon="3.87096">
        <ele>112.5</ele>
        <time>2022-05-12T13:16:57Z</time>
      </trkpt>
      <trkpt lat="43.70981" lon="3.87132">
        <ele>112.9</ele>
        <time>2022-05-12T13:17:07Z</time>
      </trkpt>
      <trkpt lat="43.71005" lon="3.87155">
        <ele>114.3</ele>
        <time>2022-05-12T13:17:17Z</time>
      </trkpt>
      <trkpt lat="43.71026" lon="3.87179">
        <ele>116.8</ele>
        <time>2022-05-12T13:17:27Z</time>
      </trkpt>
      <trkpt lat="43.7105" lon="3.87203">
        <ele>119</ele>
        <time>2022-05-12T13:17:37Z</time>
      </trkpt>
      <trkpt lat="43.71075" lon="3.87228">
        <ele>120.1</ele>
        <time>2022-05-12T13:17:47Z</time>
      </trkpt>
      <trkpt lat="43.71103" lon="3.87257">
        <ele>121</ele>
        <time>2022-05-12T13:17:57Z</time>
      </trkpt>
      <trkpt lat="43.71128" lon="3.87287">
        <ele>120.6</ele>
        <time>2022-05-12T13:18:07Z</time>
      </trkpt>
      <trkpt lat="43.71153" lon="3.87322">
        <ele>121.8</ele>
        <time>2022-05-12T13:18:17Z</time>
      </trkpt>
      <trkpt lat="43.71172" lon="3.87351">
        <ele>122.8</ele>
        <time>2022-05-12T13:18:27Z</time>
      </trkpt>
      <trkpt lat="43.71189" lon="3.87376">
        <ele>124.7</ele>
        <time>2022-05-12T13:18:37Z</time>
      </trkpt>
      <trkpt lat="43.71207" lon="3.87401">
        <ele>126.2</ele>
        <time>2022-05-12T13:18:47Z</time>
      </trkpt>
      <trkpt lat="43.71224" lon="3.87424">
        <ele>127.4</ele>
        <time>2022-05-12T13:18:57Z</time>
      </trkpt>
      <trkpt lat="43.71238" lon="3.87447">
        <ele>129.2</ele>
        <time>2022-05-12T13:19:07Z</time>
      </trkpt>
      <trkpt lat="43.71251" lon="3.87471">
        <ele>131</ele>
        <time>2022-05-12T13:19:17Z</time>
      </trkpt>
      <trkpt lat="43.71264" lon="3.87503">
        <ele>131.5</ele>
        <time>2022-05-12T13:19:27Z</time>
      </trkpt>
      <trkpt lat="43.71273" lon="3.87534">
        <ele>132</ele>
        <time>2022-05-12T13:19:37Z</time>
      </trkpt>
      <trkpt lat="43.71285" lon="3.87564">
        <ele>133.3</ele>
        <time>2022-05-12T13:19:47Z</time>
      </trkpt>
      <trkpt lat="43.7131" lon="3.87575">
        <ele>133.7</ele>
        <time>2022-05-12T13:19:57Z</time>
      </trkpt>
      <trkpt lat="43.71343" lon="3.87587">
        <ele>133.3</ele>
        <time>2022-05-12T13:20:07Z</time>
      </trkpt>
      <trkpt lat="43.71379" lon="3.876">
        <ele>131.5</ele>
        <time>2022-05-12T13:20:17Z</time>
      </trkpt>
      <trkpt lat="43.7139" lon="3.87601">
        <ele>130.8</ele>
        <time>2022-05-12T13:21:07Z</time>
      </trkpt>
      <trkpt lat="43.7143" lon="3.87606">
        <ele>125.7</ele>
        <time>2022-05-12T13:21:27Z</time>
      </trkpt>
      <trkpt lat="43.71472" lon="3.87611">
        <ele>119</ele>
        <time>2022-05-12T13:21:37Z</time>
      </trkpt>
      <trkpt lat="43.71491" lon="3.87599">
        <ele>113.9</ele>
        <time>2022-05-12T13:21:47Z</time>
      </trkpt>
      <trkpt lat="43.71479" lon="3.87547">
        <ele>111.6</ele>
        <time>2022-05-12T13:21:57Z</time>
      </trkpt>
      <trkpt lat="43.71489" lon="3.87515">
        <ele>109.4</ele>
        <time>2022-05-12T13:22:07Z</time>
      </trkpt>
      <trkpt lat="43.71491" lon="3.87473">
        <ele>110</ele>
        <time>2022-05-12T13:22:17Z</time>
      </trkpt>
      <trkpt lat="43.71485" lon="3.87427">
        <ele>107.4</ele>
        <time>2022-05-12T13:22:27Z</time>
      </trkpt>
      <trkpt lat="43.71513" lon="3.87389">
        <ele>105.5</ele>
        <time>2022-05-12T13:22:37Z</time>
      </trkpt>
      <trkpt lat="43.71541" lon="3.87358">
        <ele>104.9</ele>
        <time>2022-05-12T13:22:47Z</time>
      </trkpt>
      <trkpt lat="43.71579" lon="3.87328">
        <ele>104.7</ele>
        <time>2022-05-12T13:22:57Z</time>
      </trkpt>
      <trkpt lat="43.71596" lon="3.87264">
        <ele>100.7</ele>
        <time>2022-05-12T13:23:07Z</time>
      </trkpt>
      <trkpt lat="43.716" lon="3.87208">
        <ele>96.8</ele>
        <time>2022-05-12T13:23:17Z</time>
      </trkpt>
      <trkpt lat="43.71627" lon="3.87153">
        <ele>92.6</ele>
        <time>2022-05-12T13:23:27Z</time>
      </trkpt>
      <trkpt lat="43.71645" lon="3.87102">
        <ele>90.1</ele>
        <time>2022-05-12T13:23:37Z</time>
      </trkpt>
      <trkpt lat="43.71666" lon="3.87065">
        <ele>86.7</ele>
        <time>2022-05-12T13:23:47Z</time>
      </trkpt>
      <trkpt lat="43.71697" lon="3.87033">
        <ele>81.9</ele>
        <time>2022-05-12T13:23:57Z</time>
      </trkpt>
      <trkpt lat="43.7173" lon="3.87029">
        <ele>77.9</ele>
        <time>2022-05-12T13:24:07Z</time>
      </trkpt>
      <trkpt lat="43.71767" lon="3.87049">
        <ele>74.9</ele>
        <time>2022-05-12T13:24:17Z</time>
      </trkpt>
      <trkpt lat="43.71795" lon="3.87042">
        <ele>74.5</ele>
        <time>2022-05-12T13:24:27Z</time>
      </trkpt>
      <trkpt lat="43.71807" lon="3.87059">
        <ele>75.2</ele>
        <time>2022-05-12T13:24:37Z</time>
      </trkpt>
      <trkpt lat="43.71839" lon="3.87056">
        <ele>74.4</ele>
        <time>2022-05-12T13:24:47Z</time>
      </trkpt>
      <trkpt lat="43.71851" lon="3.87044">
        <ele>76</ele>
        <time>2022-05-12T13:24:57Z</time>
      </trkpt>
      <trkpt lat="43.71852" lon="3.87031">
        <ele>76.8</ele>
        <time>2022-05-12T13:26:17Z</time>
      </trkpt>
      <trkpt lat="43.71846" lon="3.86983">
        <ele>76.5</ele>
        <time>2022-05-12T13:26:37Z</time>
      </trkpt>
      <trkpt lat="43.71847" lon="3.86905">
        <ele>73.9</ele>
        <time>2022-05-12T13:26:47Z</time>
      </trkpt>
      <trkpt lat="43.71899" lon="3.86886">
        <ele>72.5</ele>
        <time>2022-05-12T13:26:57Z</time>
      </trkpt>
      <trkpt lat="43.71942" lon="3.86939">
        <ele>73.7</ele>
        <time>2022-05-12T13:27:07Z</time>
      </trkpt>
      <trkpt lat="43.7198" lon="3.86999">
        <ele>74.4</ele>
        <time>2022-05-12T13:27:17Z</time>
      </trkpt>
      <trkpt lat="43.72006" lon="3.87062">
        <ele>76</ele>
        <time>2022-05-12T13:27:27Z</time>
      </trkpt>
      <trkpt lat="43.72034" lon="3.87119">
        <ele>78.1</ele>
        <time>2022-05-12T13:27:37Z</time>
      </trkpt>
      <trkpt lat="43.72054" lon="3.87164">
        <ele>79.9</ele>
        <time>2022-05-12T13:27:47Z</time>
      </trkpt>
      <trkpt lat="43.72074" lon="3.87202">
        <ele>80.6</ele>
        <time>2022-05-12T13:27:57Z</time>
      </trkpt>
      <trkpt lat="43.72099" lon="3.87235">
        <ele>81.3</ele>
        <time>2022-05-12T13:28:07Z</time>
      </trkpt>
      <trkpt lat="43.72123" lon="3.8727">
        <ele>81.7</ele>
        <time>2022-05-12T13:28:17Z</time>
      </trkpt>
      <trkpt lat="43.72151" lon="3.87305">
        <ele>82.5</ele>
        <time>2022-05-12T13:28:27Z</time>
      </trkpt>
      <trkpt lat="43.72174" lon="3.87332">
        <ele>83.9</ele>
        <time>2022-05-12T13:28:37Z</time>
      </trkpt>
      <trkpt lat="43.7219" lon="3.87313">
        <ele>83.2</ele>
        <time>2022-05-12T13:28:47Z</time>
      </trkpt>
      <trkpt lat="43.7219" lon="3.8727">
        <ele>83.2</ele>
        <time>2022-05-12T13:28:57Z</time>
      </trkpt>
      <trkpt lat="43.72196" lon="3.87234">
        <ele>85</ele>
        <time>2022-05-12T13:29:07Z</time>
      </trkpt>
      <trkpt lat="43.7222" lon="3.87176">
        <ele>82.9</ele>
        <time>2022-05-12T13:29:17Z</time>
      </trkpt>
      <trkpt lat="43.7222" lon="3.8712">
        <ele>82.8</ele>
        <time>2022-05-12T13:29:27Z</time>
      </trkpt>
      <trkpt lat="43.72203" lon="3.87067">
        <ele>82.1</ele>
        <time>2022-05-12T13:29:37Z</time>
      </trkpt>
      <trkpt lat="43.72179" lon="3.87017">
        <ele>79.7</ele>
        <time>2022-05-12T13:29:47Z</time>
      </trkpt>
      <trkpt lat="43.72141" lon="3.86976">
        <ele>77.1</ele>
        <time>2022-05-12T13:29:57Z</time>
      </trkpt>
      <trkpt lat="43.72141" lon="3.86922">
        <ele>77.3</ele>
        <time>2022-05-12T13:30:07Z</time>
      </trkpt>
      <trkpt lat="43.72138" lon="3.86894">
        <ele>77</ele>
        <time>2022-05-12T13:30:37Z</time>
      </trkpt>
      <trkpt lat="43.72113" lon="3.86858">
        <ele>76.1</ele>
        <time>2022-05-12T13:30:47Z</time>
      </trkpt>
      <trkpt lat="43.72079" lon="3.86817">
        <ele>74.3</ele>
        <time>2022-05-12T13:30:57Z</time>
      </trkpt>
      <trkpt lat="43.72046" lon="3.86768">
        <ele>74.3</ele>
        <time>2022-05-12T13:31:07Z</time>
      </trkpt>
      <trkpt lat="43.72032" lon="3.8671">
        <ele>74.2</ele>
        <time>2022-05-12T13:31:17Z</time>
      </trkpt>
      <trkpt lat="43.72028" lon="3.86638">
        <ele>72</ele>
        <time>2022-05-12T13:31:27Z</time>
      </trkpt>
      <trkpt lat="43.72012" lon="3.86569">
        <ele>67.5</ele>
        <time>2022-05-12T13:31:37Z</time>
      </trkpt>
      <trkpt lat="43.72003" lon="3.86555">
        <ele>67</ele>
        <time>2022-05-12T13:33:37Z</time>
      </trkpt>
      <trkpt lat="43.71974" lon="3.86541">
        <ele>67</ele>
        <time>2022-05-12T13:33:57Z</time>
      </trkpt>
      <trkpt lat="43.71941" lon="3.86527">
        <ele>67</ele>
        <time>2022-05-12T13:34:07Z</time>
      </trkpt>
      <trkpt lat="43.71908" lon="3.86512">
        <ele>67</ele>
        <time>2022-05-12T13:34:17Z</time>
      </trkpt>
      <trkpt lat="43.71878" lon="3.86496">
        <ele>67</ele>
        <time>2022-05-12T13:34:27Z</time>
      </trkpt>
      <trkpt lat="43.71846" lon="3.86477">
        <ele>67</ele>
        <time>2022-05-12T13:34:37Z</time>
      </trkpt>
      <trkpt lat="43.71841" lon="3.86441">
        <ele>66</ele>
        <time>2022-05-12T13:34:47Z</time>
      </trkpt>
      <trkpt lat="43.71857" lon="3.864">
        <ele>66</ele>
        <time>2022-05-12T13:34:57Z</time>
      </trkpt>
      <trkpt lat="43.7187" lon="3.86366">
        <ele>66</ele>
        <time>2022-05-12T13:35:07Z</time>
      </trkpt>
      <trkpt lat="43.71864" lon="3.86355">
        <ele>65.7</ele>
        <time>2022-05-12T13:36:07Z</time>
      </trkpt>
      <trkpt lat="43.71842" lon="3.86343">
        <ele>65.8</ele>
        <time>2022-05-12T13:36:27Z</time>
      </trkpt>
      <trkpt lat="43.71819" lon="3.86329">
        <ele>65.7</ele>
        <time>2022-05-12T13:36:37Z</time>
      </trkpt>
      <trkpt lat="43.71806" lon="3.86321">
        <ele>65.5</ele>
        <time>2022-05-12T13:36:47Z</time>
      </trkpt>
      <trkpt lat="43.71783" lon="3.86317">
        <ele>65.4</ele>
        <time>2022-05-12T13:37:07Z</time>
      </trkpt>
      <trkpt lat="43.71761" lon="3.86315">
        <ele>64.9</ele>
        <time>2022-05-12T13:37:17Z</time>
      </trkpt>
      <trkpt lat="43.71741" lon="3.8632">
        <ele>64.7</ele>
        <time>2022-05-12T13:37:27Z</time>
      </trkpt>
      <trkpt lat="43.71719" lon="3.86332">
        <ele>64.8</ele>
        <time>2022-05-12T13:37:37Z</time>
      </trkpt>
      <trkpt lat="43.71709" lon="3.86331">
        <ele>64.4</ele>
        <time>2022-05-12T13:37:47Z</time>
      </trkpt>
      <trkpt lat="43.71705" lon="3.8632">
        <ele>63.4</ele>
        <time>2022-05-12T13:38:07Z</time>
      </trkpt>
      <trkpt lat="43.71708" lon="3.86308">
        <ele>62.7</ele>
        <time>2022-05-12T13:40:37Z</time>
      </trkpt>
      <trkpt lat="43.717" lon="3.86291">
        <ele>64.6</ele>
        <time>2022-05-12T13:41:47Z</time>
      </trkpt>
      <trkpt lat="43.7169" lon="3.8627">
        <ele>68.5</ele>
        <time>2022-05-12T13:42:17Z</time>
      </trkpt>
      <trkpt lat="43.7168" lon="3.86254">
        <ele>70.9</ele>
        <time>2022-05-12T13:42:37Z</time>
      </trkpt>
      <trkpt lat="43.7167" lon="3.86221">
        <ele>69.6</ele>
        <time>2022-05-12T13:42:47Z</time>
      </trkpt>
      <trkpt lat="43.71671" lon="3.86179">
        <ele>68.9</ele>
        <time>2022-05-12T13:42:57Z</time>
      </trkpt>
      <trkpt lat="43.7169" lon="3.86136">
        <ele>70.4</ele>
        <time>2022-05-12T13:43:07Z</time>
      </trkpt>
      <trkpt lat="43.71716" lon="3.86106">
        <ele>71.3</ele>
        <time>2022-05-12T13:43:17Z</time>
      </trkpt>
      <trkpt lat="43.71736" lon="3.86079">
        <ele>71.5</ele>
        <time>2022-05-12T13:43:27Z</time>
      </trkpt>
      <trkpt lat="43.71761" lon="3.86052">
        <ele>72.5</ele>
        <time>2022-05-12T13:43:37Z</time>
      </trkpt>
      <trkpt lat="43.71782" lon="3.86016">
        <ele>72.8</ele>
        <time>2022-05-12T13:43:47Z</time>
      </trkpt>
      <trkpt lat="43.71772" lon="3.8599">
        <ele>74.6</ele>
        <time>2022-05-12T13:43:57Z</time>
      </trkpt>
      <trkpt lat="43.71758" lon="3.8598">
        <ele>76.8</ele>
        <time>2022-05-12T13:44:07Z</time>
      </trkpt>
      <trkpt lat="43.71745" lon="3.85969">
        <ele>78.4</ele>
        <time>2022-05-12T13:44:17Z</time>
      </trkpt>
      <trkpt lat="43.71731" lon="3.85958">
        <ele>79.7</ele>
        <time>2022-05-12T13:44:27Z</time>
      </trkpt>
      <trkpt lat="43.71724" lon="3.85937">
        <ele>81.5</ele>
        <time>2022-05-12T13:44:37Z</time>
      </trkpt>
      <trkpt lat="43.7172" lon="3.85918">
        <ele>83</ele>
        <time>2022-05-12T13:44:47Z</time>
      </trkpt>
      <trkpt lat="43.71709" lon="3.85901">
        <ele>84.3</ele>
        <time>2022-05-12T13:44:57Z</time>
      </trkpt>
      <trkpt lat="43.71697" lon="3.8589">
        <ele>85.7</ele>
        <time>2022-05-12T13:45:07Z</time>
      </trkpt>
      <trkpt lat="43.71682" lon="3.85876">
        <ele>86.2</ele>
        <time>2022-05-12T13:45:17Z</time>
      </trkpt>
      <trkpt lat="43.71668" lon="3.85854">
        <ele>87</ele>
        <time>2022-05-12T13:45:27Z</time>
      </trkpt>
      <trkpt lat="43.71655" lon="3.85827">
        <ele>86.7</ele>
        <time>2022-05-12T13:45:37Z</time>
      </trkpt>
      <trkpt lat="43.71639" lon="3.85793">
        <ele>86</ele>
        <time>2022-05-12T13:45:47Z</time>
      </trkpt>
      <trkpt lat="43.71627" lon="3.85749">
        <ele>85.6</ele>
        <time>2022-05-12T13:45:57Z</time>
      </trkpt>
      <trkpt lat="43.71621" lon="3.85687">
        <ele>81.8</ele>
        <time>2022-05-12T13:46:07Z</time>
      </trkpt>
      <trkpt lat="43.71616" lon="3.85638">
        <ele>78.1</ele>
        <time>2022-05-12T13:46:17Z</time>
      </trkpt>
      <trkpt lat="43.71609" lon="3.85568">
        <ele>72.3</ele>
        <time>2022-05-12T13:46:27Z</time>
      </trkpt>
      <trkpt lat="43.71589" lon="3.85496">
        <ele>68.4</ele>
        <time>2022-05-12T13:46:37Z</time>
      </trkpt>
      <trkpt lat="43.7158" lon="3.8541">
        <ele>63.6</ele>
        <time>2022-05-12T13:46:47Z</time>
      </trkpt>
      <trkpt lat="43.71595" lon="3.85343">
        <ele>63.4</ele>
        <time>2022-05-12T13:46:57Z</time>
      </trkpt>
      <trkpt lat="43.7161" lon="3.8527">
        <ele>63.7</ele>
        <time>2022-05-12T13:47:07Z</time>
      </trkpt>
      <trkpt lat="43.71623" lon="3.85205">
        <ele>63</ele>
        <time>2022-05-12T13:47:17Z</time>
      </trkpt>
      <trkpt lat="43.71643" lon="3.8513">
        <ele>63</ele>
        <time>2022-05-12T13:47:27Z</time>
      </trkpt>
      <trkpt lat="43.71647" lon="3.85064">
        <ele>63.8</ele>
        <time>2022-05-12T13:47:37Z</time>
      </trkpt>
      <trkpt lat="43.71635" lon="3.84993">
        <ele>62.9</ele>
        <time>2022-05-12T13:47:47Z</time>
      </trkpt>
      <trkpt lat="43.71619" lon="3.84948">
        <ele>62.1</ele>
        <time>2022-05-12T13:47:57Z</time>
      </trkpt>
      <trkpt lat="43.71616" lon="3.8493">
        <ele>61.8</ele>
        <time>2022-05-12T13:48:07Z</time>
      </trkpt>
      <trkpt lat="43.71595" lon="3.849">
        <ele>62.5</ele>
        <time>2022-05-12T13:48:37Z</time>
      </trkpt>
      <trkpt lat="43.71593" lon="3.84888">
        <ele>63.4</ele>
        <time>2022-05-12T13:48:57Z</time>
      </trkpt>
      <trkpt lat="43.71595" lon="3.84873">
        <ele>64.2</ele>
        <time>2022-05-12T13:49:07Z</time>
      </trkpt>
      <trkpt lat="43.71602" lon="3.8484">
        <ele>64.6</ele>
        <time>2022-05-12T13:49:17Z</time>
      </trkpt>
      <trkpt lat="43.71608" lon="3.84798">
        <ele>65</ele>
        <time>2022-05-12T13:49:27Z</time>
      </trkpt>
      <trkpt lat="43.71609" lon="3.8477">
        <ele>67.2</ele>
        <time>2022-05-12T13:49:37Z</time>
      </trkpt>
      <trkpt lat="43.71602" lon="3.84749">
        <ele>68.4</ele>
        <time>2022-05-12T13:49:47Z</time>
      </trkpt>
      <trkpt lat="43.7159" lon="3.84748">
        <ele>71.4</ele>
        <time>2022-05-12T13:49:57Z</time>
      </trkpt>
      <trkpt lat="43.71587" lon="3.84766">
        <ele>72.2</ele>
        <time>2022-05-12T13:50:07Z</time>
      </trkpt>
      <trkpt lat="43.71582" lon="3.84788">
        <ele>72.9</ele>
        <time>2022-05-12T13:50:17Z</time>
      </trkpt>
      <trkpt lat="43.71576" lon="3.8481">
        <ele>73.4</ele>
        <time>2022-05-12T13:50:27Z</time>
      </trkpt>
      <trkpt lat="43.71566" lon="3.84828">
        <ele>74.9</ele>
        <time>2022-05-12T13:50:37Z</time>
      </trkpt>
      <trkpt lat="43.7155" lon="3.84839">
        <ele>76.4</ele>
        <time>2022-05-12T13:50:47Z</time>
      </trkpt>
      <trkpt lat="43.71531" lon="3.8484">
        <ele>76.9</ele>
        <time>2022-05-12T13:50:57Z</time>
      </trkpt>
      <trkpt lat="43.71512" lon="3.84834">
        <ele>77.9</ele>
        <time>2022-05-12T13:51:07Z</time>
      </trkpt>
      <trkpt lat="43.71495" lon="3.84819">
        <ele>79.2</ele>
        <time>2022-05-12T13:51:17Z</time>
      </trkpt>
      <trkpt lat="43.71482" lon="3.848">
        <ele>80.9</ele>
        <time>2022-05-12T13:51:27Z</time>
      </trkpt>
      <trkpt lat="43.71469" lon="3.84782">
        <ele>82.6</ele>
        <time>2022-05-12T13:51:37Z</time>
      </trkpt>
      <trkpt lat="43.71444" lon="3.84776">
        <ele>83.3</ele>
        <time>2022-05-12T13:51:47Z</time>
      </trkpt>
      <trkpt lat="43.71418" lon="3.84772">
        <ele>85.3</ele>
        <time>2022-05-12T13:51:57Z</time>
      </trkpt>
      <trkpt lat="43.71388" lon="3.8476">
        <ele>85</ele>
        <time>2022-05-12T13:52:07Z</time>
      </trkpt>
      <trkpt lat="43.71346" lon="3.84784">
        <ele>84.2</ele>
        <time>2022-05-12T13:52:17Z</time>
      </trkpt>
      <trkpt lat="43.71299" lon="3.84795">
        <ele>79.3</ele>
        <time>2022-05-12T13:52:27Z</time>
      </trkpt>
      <trkpt lat="43.7124" lon="3.84774">
        <ele>75.8</ele>
        <time>2022-05-12T13:52:37Z</time>
      </trkpt>
      <trkpt lat="43.71226" lon="3.84735">
        <ele>77.5</ele>
        <time>2022-05-12T13:52:47Z</time>
      </trkpt>
      <trkpt lat="43.71226" lon="3.84718">
        <ele>79.3</ele>
        <time>2022-05-12T13:52:57Z</time>
      </trkpt>
      <trkpt lat="43.71211" lon="3.84697">
        <ele>81</ele>
        <time>2022-05-12T13:53:17Z</time>
      </trkpt>
      <trkpt lat="43.71195" lon="3.84677">
        <ele>81.9</ele>
        <time>2022-05-12T13:53:37Z</time>
      </trkpt>
      <trkpt lat="43.71194" lon="3.84643">
        <ele>86.3</ele>
        <time>2022-05-12T13:54:27Z</time>
      </trkpt>
      <trkpt lat="43.71197" lon="3.84601">
        <ele>89.6</ele>
        <time>2022-05-12T13:54:57Z</time>
      </trkpt>
      <trkpt lat="43.71195" lon="3.84579">
        <ele>90.4</ele>
        <time>2022-05-12T13:55:17Z</time>
      </trkpt>
      <trkpt lat="43.71202" lon="3.84573">
        <ele>91.9</ele>
        <time>2022-05-12T13:55:27Z</time>
      </trkpt>
      <trkpt lat="43.71214" lon="3.84567">
        <ele>94.4</ele>
        <time>2022-05-12T13:55:37Z</time>
      </trkpt>
      <trkpt lat="43.71222" lon="3.84555">
        <ele>97</ele>
        <time>2022-05-12T13:55:47Z</time>
      </trkpt>
      <trkpt lat="43.71232" lon="3.84546">
        <ele>97.9</ele>
        <time>2022-05-12T13:55:57Z</time>
      </trkpt>
      <trkpt lat="43.7124" lon="3.84531">
        <ele>99.9</ele>
        <time>2022-05-12T13:56:07Z</time>
      </trkpt>
      <trkpt lat="43.71241" lon="3.84513">
        <ele>101.2</ele>
        <time>2022-05-12T13:56:17Z</time>
      </trkpt>
      <trkpt lat="43.71243" lon="3.84492">
        <ele>102.2</ele>
        <time>2022-05-12T13:56:27Z</time>
      </trkpt>
      <trkpt lat="43.71249" lon="3.84469">
        <ele>102.7</ele>
        <time>2022-05-12T13:56:37Z</time>
      </trkpt>
      <trkpt lat="43.71238" lon="3.84424">
        <ele>97.9</ele>
        <time>2022-05-12T13:56:47Z</time>
      </trkpt>
      <trkpt lat="43.71239" lon="3.84382">
        <ele>91.7</ele>
        <time>2022-05-12T13:56:57Z</time>
      </trkpt>
      <trkpt lat="43.71225" lon="3.84337">
        <ele>84</ele>
        <time>2022-05-12T13:57:07Z</time>
      </trkpt>
      <trkpt lat="43.71192" lon="3.84319">
        <ele>84.4</ele>
        <time>2022-05-12T13:57:17Z</time>
      </trkpt>
      <trkpt lat="43.71178" lon="3.84335">
        <ele>86.2</ele>
        <time>2022-05-12T13:57:27Z</time>
      </trkpt>
      <trkpt lat="43.71163" lon="3.84345">
        <ele>87.1</ele>
        <time>2022-05-12T13:57:37Z</time>
      </trkpt>
      <trkpt lat="43.71146" lon="3.84343">
        <ele>89.2</ele>
        <time>2022-05-12T13:57:47Z</time>
      </trkpt>
      <trkpt lat="43.71136" lon="3.84329">
        <ele>91.2</ele>
        <time>2022-05-12T13:57:57Z</time>
      </trkpt>
      <trkpt lat="43.71127" lon="3.84312">
        <ele>92.1</ele>
        <time>2022-05-12T13:58:07Z</time>
      </trkpt>
      <trkpt lat="43.71119" lon="3.84295">
        <ele>93.2</ele>
        <time>2022-05-12T13:58:17Z</time>
      </trkpt>
      <trkpt lat="43.71107" lon="3.84275">
        <ele>95</ele>
        <time>2022-05-12T13:58:27Z</time>
      </trkpt>
      <trkpt lat="43.711" lon="3.84258">
        <ele>96.3</ele>
        <time>2022-05-12T13:58:37Z</time>
      </trkpt>
      <trkpt lat="43.71091" lon="3.84242">
        <ele>97.5</ele>
        <time>2022-05-12T13:58:47Z</time>
      </trkpt>
      <trkpt lat="43.71086" lon="3.84223">
        <ele>99.8</ele>
        <time>2022-05-12T13:58:57Z</time>
      </trkpt>
      <trkpt lat="43.71082" lon="3.84208">
        <ele>100.9</ele>
        <time>2022-05-12T13:59:07Z</time>
      </trkpt>
      <trkpt lat="43.7108" lon="3.84189">
        <ele>102.3</ele>
        <time>2022-05-12T13:59:17Z</time>
      </trkpt>
      <trkpt lat="43.71074" lon="3.8417">
        <ele>104</ele>
        <time>2022-05-12T13:59:27Z</time>
      </trkpt>
      <trkpt lat="43.71067" lon="3.84151">
        <ele>105.3</ele>
        <time>2022-05-12T13:59:37Z</time>
      </trkpt>
      <trkpt lat="43.71058" lon="3.84132">
        <ele>106.8</ele>
        <time>2022-05-12T13:59:47Z</time>
      </trkpt>
      <trkpt lat="43.71046" lon="3.84115">
        <ele>107.8</ele>
        <time>2022-05-12T13:59:57Z</time>
      </trkpt>
      <trkpt lat="43.71035" lon="3.84096">
        <ele>108.5</ele>
        <time>2022-05-12T14:00:07Z</time>
      </trkpt>
      <trkpt lat="43.71026" lon="3.84076">
        <ele>109.5</ele>
        <time>2022-05-12T14:00:17Z</time>
      </trkpt>
      <trkpt lat="43.71011" lon="3.84057">
        <ele>111.5</ele>
        <time>2022-05-12T14:00:27Z</time>
      </trkpt>
      <trkpt lat="43.70995" lon="3.84038">
        <ele>112.7</ele>
        <time>2022-05-12T14:00:37Z</time>
      </trkpt>
      <trkpt lat="43.70974" lon="3.84027">
        <ele>113.9</ele>
        <time>2022-05-12T14:00:47Z</time>
      </trkpt>
      <trkpt lat="43.70953" lon="3.84019">
        <ele>115.4</ele>
        <time>2022-05-12T14:00:57Z</time>
      </trkpt>
      <trkpt lat="43.70935" lon="3.83997">
        <ele>116.8</ele>
        <time>2022-05-12T14:01:07Z</time>
      </trkpt>
      <trkpt lat="43.7092" lon="3.83977">
        <ele>118</ele>
        <time>2022-05-12T14:01:17Z</time>
      </trkpt>
      <trkpt lat="43.7092" lon="3.83947">
        <ele>118.9</ele>
        <time>2022-05-12T14:01:27Z</time>
      </trkpt>
      <trkpt lat="43.70925" lon="3.83909">
        <ele>119</ele>
        <time>2022-05-12T14:01:37Z</time>
      </trkpt>
      <trkpt lat="43.7092" lon="3.83869">
        <ele>119</ele>
        <time>2022-05-12T14:01:47Z</time>
      </trkpt>
      <trkpt lat="43.70901" lon="3.83837">
        <ele>118.7</ele>
        <time>2022-05-12T14:01:57Z</time>
      </trkpt>
      <trkpt lat="43.70883" lon="3.83792">
        <ele>117.8</ele>
        <time>2022-05-12T14:02:07Z</time>
      </trkpt>
      <trkpt lat="43.70873" lon="3.83748">
        <ele>119.1</ele>
        <time>2022-05-12T14:03:07Z</time>
      </trkpt>
      <trkpt lat="43.70882" lon="3.83714">
        <ele>120.2</ele>
        <time>2022-05-12T14:03:27Z</time>
      </trkpt>
      <trkpt lat="43.70885" lon="3.8369">
        <ele>122.3</ele>
        <time>2022-05-12T14:03:37Z</time>
      </trkpt>
      <trkpt lat="43.70879" lon="3.8366">
        <ele>124.2</ele>
        <time>2022-05-12T14:03:47Z</time>
      </trkpt>
      <trkpt lat="43.7087" lon="3.83639">
        <ele>125</ele>
        <time>2022-05-12T14:03:57Z</time>
      </trkpt>
      <trkpt lat="43.70853" lon="3.83605">
        <ele>125.3</ele>
        <time>2022-05-12T14:04:07Z</time>
      </trkpt>
      <trkpt lat="43.70844" lon="3.83576">
        <ele>125.8</ele>
        <time>2022-05-12T14:04:17Z</time>
      </trkpt>
      <trkpt lat="43.70843" lon="3.83532">
        <ele>126.2</ele>
        <time>2022-05-12T14:04:27Z</time>
      </trkpt>
      <trkpt lat="43.70847" lon="3.83483">
        <ele>125</ele>
        <time>2022-05-12T14:04:37Z</time>
      </trkpt>
      <trkpt lat="43.70851" lon="3.83435">
        <ele>122.3</ele>
        <time>2022-05-12T14:04:47Z</time>
      </trkpt>
      <trkpt lat="43.70839" lon="3.83392">
        <ele>120.5</ele>
        <time>2022-05-12T14:04:57Z</time>
      </trkpt>
      <trkpt lat="43.70853" lon="3.83347">
        <ele>119.9</ele>
        <time>2022-05-12T14:05:07Z</time>
      </trkpt>
      <trkpt lat="43.70857" lon="3.83304">
        <ele>119.4</ele>
        <time>2022-05-12T14:05:17Z</time>
      </trkpt>
      <trkpt lat="43.70868" lon="3.83259">
        <ele>120.7</ele>
        <time>2022-05-12T14:05:27Z</time>
      </trkpt>
      <trkpt lat="43.70884" lon="3.83209">
        <ele>119.3</ele>
        <time>2022-05-12T14:05:37Z</time>
      </trkpt>
      <trkpt lat="43.70863" lon="3.83167">
        <ele>118.1</ele>
        <time>2022-05-12T14:05:47Z</time>
      </trkpt>
      <trkpt lat="43.70812" lon="3.83152">
        <ele>115.4</ele>
        <time>2022-05-12T14:05:57Z</time>
      </trkpt>
      <trkpt lat="43.70757" lon="3.83118">
        <ele>113.2</ele>
        <time>2022-05-12T14:06:07Z</time>
      </trkpt>
      <trkpt lat="43.70705" lon="3.83088">
        <ele>112.2</ele>
        <time>2022-05-12T14:06:17Z</time>
      </trkpt>
      <trkpt lat="43.70692" lon="3.83071">
        <ele>111.6</ele>
        <time>2022-05-12T14:06:27Z</time>
      </trkpt>
      <trkpt lat="43.70683" lon="3.8306">
        <ele>111.2</ele>
        <time>2022-05-12T14:06:37Z</time>
      </trkpt>
      <trkpt lat="43.70687" lon="3.82992">
        <ele>107.3</ele>
        <time>2022-05-12T14:06:47Z</time>
      </trkpt>
      <trkpt lat="43.70639" lon="3.82963">
        <ele>107</ele>
        <time>2022-05-12T14:06:57Z</time>
      </trkpt>
      <trkpt lat="43.70585" lon="3.8294">
        <ele>106</ele>
        <time>2022-05-12T14:07:07Z</time>
      </trkpt>
      <trkpt lat="43.70535" lon="3.8291">
        <ele>105.6</ele>
        <time>2022-05-12T14:07:17Z</time>
      </trkpt>
      <trkpt lat="43.70486" lon="3.82882">
        <ele>104.8</ele>
        <time>2022-05-12T14:07:27Z</time>
      </trkpt>
      <trkpt lat="43.70437" lon="3.82853">
        <ele>105</ele>
        <time>2022-05-12T14:07:37Z</time>
      </trkpt>
      <trkpt lat="43.70395" lon="3.82825">
        <ele>105.5</ele>
        <time>2022-05-12T14:07:47Z</time>
      </trkpt>
      <trkpt lat="43.70376" lon="3.8286">
        <ele>107.4</ele>
        <time>2022-05-12T14:07:57Z</time>
      </trkpt>
      <trkpt lat="43.70361" lon="3.82895">
        <ele>109.2</ele>
        <time>2022-05-12T14:08:07Z</time>
      </trkpt>
      <trkpt lat="43.70349" lon="3.82932">
        <ele>110.6</ele>
        <time>2022-05-12T14:08:17Z</time>
      </trkpt>
      <trkpt lat="43.70342" lon="3.82973">
        <ele>112</ele>
        <time>2022-05-12T14:08:27Z</time>
      </trkpt>
      <trkpt lat="43.70338" lon="3.83006">
        <ele>113.2</ele>
        <time>2022-05-12T14:08:37Z</time>
      </trkpt>
      <trkpt lat="43.70341" lon="3.83035">
        <ele>114.5</ele>
        <time>2022-05-12T14:08:47Z</time>
      </trkpt>
      <trkpt lat="43.70341" lon="3.83065">
        <ele>116.4</ele>
        <time>2022-05-12T14:08:57Z</time>
      </trkpt>
      <trkpt lat="43.70334" lon="3.83094">
        <ele>117.4</ele>
        <time>2022-05-12T14:09:07Z</time>
      </trkpt>
      <trkpt lat="43.70332" lon="3.83121">
        <ele>118.7</ele>
        <time>2022-05-12T14:09:17Z</time>
      </trkpt>
      <trkpt lat="43.70333" lon="3.8315">
        <ele>120.8</ele>
        <time>2022-05-12T14:09:27Z</time>
      </trkpt>
      <trkpt lat="43.70343" lon="3.83177">
        <ele>122.4</ele>
        <time>2022-05-12T14:09:37Z</time>
      </trkpt>
      <trkpt lat="43.7034" lon="3.83203">
        <ele>123.2</ele>
        <time>2022-05-12T14:09:47Z</time>
      </trkpt>
      <trkpt lat="43.70324" lon="3.8323">
        <ele>123.8</ele>
        <time>2022-05-12T14:09:57Z</time>
      </trkpt>
      <trkpt lat="43.70299" lon="3.83257">
        <ele>123.8</ele>
        <time>2022-05-12T14:10:07Z</time>
      </trkpt>
      <trkpt lat="43.70282" lon="3.83287">
        <ele>123.1</ele>
        <time>2022-05-12T14:10:17Z</time>
      </trkpt>
      <trkpt lat="43.70268" lon="3.83331">
        <ele>121.1</ele>
        <time>2022-05-12T14:11:47Z</time>
      </trkpt>
      <trkpt lat="43.70236" lon="3.8337">
        <ele>119.7</ele>
        <time>2022-05-12T14:12:07Z</time>
      </trkpt>
      <trkpt lat="43.70201" lon="3.8342">
        <ele>118.7</ele>
        <time>2022-05-12T14:12:17Z</time>
      </trkpt>
      <trkpt lat="43.70157" lon="3.83455">
        <ele>118.8</ele>
        <time>2022-05-12T14:12:27Z</time>
      </trkpt>
      <trkpt lat="43.70115" lon="3.83477">
        <ele>118.3</ele>
        <time>2022-05-12T14:12:37Z</time>
      </trkpt>
      <trkpt lat="43.7008" lon="3.83504">
        <ele>119.2</ele>
        <time>2022-05-12T14:12:47Z</time>
      </trkpt>
      <trkpt lat="43.70065" lon="3.83492">
        <ele>119</ele>
        <time>2022-05-12T14:12:57Z</time>
      </trkpt>
      <trkpt lat="43.70046" lon="3.83516">
        <ele>120.5</ele>
        <time>2022-05-12T14:13:07Z</time>
      </trkpt>
      <trkpt lat="43.70043" lon="3.83546">
        <ele>122.4</ele>
        <time>2022-05-12T14:13:17Z</time>
      </trkpt>
      <trkpt lat="43.70047" lon="3.83581">
        <ele>123.5</ele>
        <time>2022-05-12T14:13:27Z</time>
      </trkpt>
      <trkpt lat="43.7005" lon="3.83621">
        <ele>125.3</ele>
        <time>2022-05-12T14:13:37Z</time>
      </trkpt>
      <trkpt lat="43.70041" lon="3.83652">
        <ele>125.3</ele>
        <time>2022-05-12T14:13:47Z</time>
      </trkpt>
      <trkpt lat="43.70008" lon="3.83655">
        <ele>126.3</ele>
        <time>2022-05-12T14:13:57Z</time>
      </trkpt>
      <trkpt lat="43.69966" lon="3.83656">
        <ele>124.8</ele>
        <time>2022-05-12T14:14:07Z</time>
      </trkpt>
      <trkpt lat="43.69916" lon="3.83652">
        <ele>123</ele>
        <time>2022-05-12T14:14:17Z</time>
      </trkpt>
      <trkpt lat="43.69852" lon="3.83647">
        <ele>119.4</ele>
        <time>2022-05-12T14:14:27Z</time>
      </trkpt>
      <trkpt lat="43.69786" lon="3.83638">
        <ele>115.3</ele>
        <time>2022-05-12T14:14:37Z</time>
      </trkpt>
      <trkpt lat="43.69724" lon="3.83638">
        <ele>113.1</ele>
        <time>2022-05-12T14:14:47Z</time>
      </trkpt>
      <trkpt lat="43.69657" lon="3.83637">
        <ele>109.6</ele>
        <time>2022-05-12T14:14:57Z</time>
      </trkpt>
      <trkpt lat="43.69585" lon="3.8364">
        <ele>106.1</ele>
        <time>2022-05-12T14:15:07Z</time>
      </trkpt>
      <trkpt lat="43.69523" lon="3.83661">
        <ele>103.7</ele>
        <time>2022-05-12T14:15:17Z</time>
      </trkpt>
      <trkpt lat="43.69496" lon="3.83705">
        <ele>101.5</ele>
        <time>2022-05-12T14:15:27Z</time>
      </trkpt>
      <trkpt lat="43.69462" lon="3.83716">
        <ele>99.6</ele>
        <time>2022-05-12T14:15:37Z</time>
      </trkpt>
      <trkpt lat="43.69434" lon="3.837">
        <ele>98.2</ele>
        <time>2022-05-12T14:15:47Z</time>
      </trkpt>
      <trkpt lat="43.69406" lon="3.83654">
        <ele>97.1</ele>
        <time>2022-05-12T14:15:57Z</time>
      </trkpt>
      <trkpt lat="43.69365" lon="3.83638">
        <ele>94.4</ele>
        <time>2022-05-12T14:16:07Z</time>
      </trkpt>
      <trkpt lat="43.69313" lon="3.83616">
        <ele>85.2</ele>
        <time>2022-05-12T14:16:17Z</time>
      </trkpt>
      <trkpt lat="43.69289" lon="3.836">
        <ele>82.2</ele>
        <time>2022-05-12T14:16:27Z</time>
      </trkpt>
      <trkpt lat="43.69265" lon="3.83589">
        <ele>81.9</ele>
        <time>2022-05-12T14:16:37Z</time>
      </trkpt>
      <trkpt lat="43.69231" lon="3.83582">
        <ele>80.7</ele>
        <time>2022-05-12T14:16:47Z</time>
      </trkpt>
      <trkpt lat="43.69209" lon="3.83577">
        <ele>80</ele>
        <time>2022-05-12T14:16:57Z</time>
      </trkpt>
      <trkpt lat="43.69187" lon="3.83579">
        <ele>80.9</ele>
        <time>2022-05-12T14:17:07Z</time>
      </trkpt>
      <trkpt lat="43.69164" lon="3.83604">
        <ele>81.2</ele>
        <time>2022-05-12T14:17:17Z</time>
      </trkpt>
      <trkpt lat="43.69148" lon="3.83608">
        <ele>83.1</ele>
        <time>2022-05-12T14:17:27Z</time>
      </trkpt>
      <trkpt lat="43.69135" lon="3.83615">
        <ele>84.3</ele>
        <time>2022-05-12T14:17:37Z</time>
      </trkpt>
      <trkpt lat="43.69119" lon="3.83622">
        <ele>86.4</ele>
        <time>2022-05-12T14:17:47Z</time>
      </trkpt>
      <trkpt lat="43.69106" lon="3.8364">
        <ele>86.5</ele>
        <time>2022-05-12T14:17:57Z</time>
      </trkpt>
      <trkpt lat="43.69085" lon="3.83649">
        <ele>88.3</ele>
        <time>2022-05-12T14:18:07Z</time>
      </trkpt>
      <trkpt lat="43.69066" lon="3.8366">
        <ele>88.2</ele>
        <time>2022-05-12T14:18:17Z</time>
      </trkpt>
      <trkpt lat="43.69041" lon="3.83664">
        <ele>88.9</ele>
        <time>2022-05-12T14:18:27Z</time>
      </trkpt>
      <trkpt lat="43.69025" lon="3.83654">
        <ele>90.9</ele>
        <time>2022-05-12T14:18:37Z</time>
      </trkpt>
      <trkpt lat="43.69009" lon="3.83645">
        <ele>92.3</ele>
        <time>2022-05-12T14:18:47Z</time>
      </trkpt>
      <trkpt lat="43.68987" lon="3.8363">
        <ele>93.3</ele>
        <time>2022-05-12T14:18:57Z</time>
      </trkpt>
      <trkpt lat="43.68967" lon="3.83611">
        <ele>94.5</ele>
        <time>2022-05-12T14:19:07Z</time>
      </trkpt>
      <trkpt lat="43.68943" lon="3.83593">
        <ele>93.9</ele>
        <time>2022-05-12T14:19:17Z</time>
      </trkpt>
      <trkpt lat="43.68913" lon="3.83571">
        <ele>94.1</ele>
        <time>2022-05-12T14:19:27Z</time>
      </trkpt>
      <trkpt lat="43.68894" lon="3.83543">
        <ele>95.8</ele>
        <time>2022-05-12T14:19:37Z</time>
      </trkpt>
      <trkpt lat="43.68878" lon="3.83529">
        <ele>96.5</ele>
        <time>2022-05-12T14:19:47Z</time>
      </trkpt>
      <trkpt lat="43.68858" lon="3.83516">
        <ele>97.5</ele>
        <time>2022-05-12T14:19:57Z</time>
      </trkpt>
      <trkpt lat="43.68842" lon="3.83496">
        <ele>99.2</ele>
        <time>2022-05-12T14:20:07Z</time>
      </trkpt>
      <trkpt lat="43.68833" lon="3.83476">
        <ele>101.4</ele>
        <time>2022-05-12T14:20:17Z</time>
      </trkpt>
      <trkpt lat="43.68819" lon="3.83454">
        <ele>102.4</ele>
        <time>2022-05-12T14:20:27Z</time>
      </trkpt>
      <trkpt lat="43.68802" lon="3.83428">
        <ele>102.2</ele>
        <time>2022-05-12T14:20:37Z</time>
      </trkpt>
      <trkpt lat="43.68792" lon="3.83396">
        <ele>103</ele>
        <time>2022-05-12T14:21:17Z</time>
      </trkpt>
      <trkpt lat="43.6879" lon="3.8338">
        <ele>104.2</ele>
        <time>2022-05-12T14:21:37Z</time>
      </trkpt>
      <trkpt lat="43.68773" lon="3.83348">
        <ele>104.3</ele>
        <time>2022-05-12T14:21:57Z</time>
      </trkpt>
      <trkpt lat="43.68752" lon="3.83309">
        <ele>104</ele>
        <time>2022-05-12T14:22:07Z</time>
      </trkpt>
      <trkpt lat="43.68727" lon="3.83267">
        <ele>103.9</ele>
        <time>2022-05-12T14:22:17Z</time>
      </trkpt>
      <trkpt lat="43.68723" lon="3.83225">
        <ele>105.9</ele>
        <time>2022-05-12T14:22:27Z</time>
      </trkpt>
      <trkpt lat="43.68711" lon="3.83199">
        <ele>106.1</ele>
        <time>2022-05-12T14:22:37Z</time>
      </trkpt>
      <trkpt lat="43.68691" lon="3.83157">
        <ele>106.5</ele>
        <time>2022-05-12T14:22:47Z</time>
      </trkpt>
      <trkpt lat="43.68689" lon="3.83129">
        <ele>109</ele>
        <time>2022-05-12T14:22:57Z</time>
      </trkpt>
      <trkpt lat="43.68678" lon="3.83103">
        <ele>109.4</ele>
        <time>2022-05-12T14:23:07Z</time>
      </trkpt>
      <trkpt lat="43.68654" lon="3.83075">
        <ele>108.2</ele>
        <time>2022-05-12T14:23:17Z</time>
      </trkpt>
      <trkpt lat="43.68622" lon="3.83052">
        <ele>106.5</ele>
        <time>2022-05-12T14:23:27Z</time>
      </trkpt>
      <trkpt lat="43.68583" lon="3.83016">
        <ele>104.8</ele>
        <time>2022-05-12T14:23:37Z</time>
      </trkpt>
      <trkpt lat="43.68565" lon="3.82965">
        <ele>101.8</ele>
        <time>2022-05-12T14:23:47Z</time>
      </trkpt>
      <trkpt lat="43.68573" lon="3.82915">
        <ele>97.7</ele>
        <time>2022-05-12T14:23:57Z</time>
      </trkpt>
      <trkpt lat="43.68605" lon="3.82859">
        <ele>96.2</ele>
        <time>2022-05-12T14:24:07Z</time>
      </trkpt>
      <trkpt lat="43.68586" lon="3.82846">
        <ele>93.7</ele>
        <time>2022-05-12T14:24:17Z</time>
      </trkpt>
      <trkpt lat="43.68565" lon="3.82864">
        <ele>93.5</ele>
        <time>2022-05-12T14:24:27Z</time>
      </trkpt>
      <trkpt lat="43.68542" lon="3.8289">
        <ele>93.6</ele>
        <time>2022-05-12T14:24:37Z</time>
      </trkpt>
      <trkpt lat="43.68507" lon="3.82908">
        <ele>92.2</ele>
        <time>2022-05-12T14:24:47Z</time>
      </trkpt>
      <trkpt lat="43.68473" lon="3.82926">
        <ele>91.1</ele>
        <time>2022-05-12T14:24:57Z</time>
      </trkpt>
      <trkpt lat="43.68441" lon="3.8295">
        <ele>90</ele>
        <time>2022-05-12T14:25:07Z</time>
      </trkpt>
      <trkpt lat="43.68422" lon="3.82983">
        <ele>90.1</ele>
        <time>2022-05-12T14:25:17Z</time>
      </trkpt>
      <trkpt lat="43.68409" lon="3.83016">
        <ele>90.6</ele>
        <time>2022-05-12T14:25:27Z</time>
      </trkpt>
      <trkpt lat="43.68408" lon="3.83051">
        <ele>91</ele>
        <time>2022-05-12T14:25:37Z</time>
      </trkpt>
      <trkpt lat="43.68384" lon="3.83098">
        <ele>87.8</ele>
        <time>2022-05-12T14:25:47Z</time>
      </trkpt>
      <trkpt lat="43.68376" lon="3.83135">
        <ele>87.1</ele>
        <time>2022-05-12T14:25:57Z</time>
      </trkpt>
      <trkpt lat="43.68366" lon="3.83184">
        <ele>86.1</ele>
        <time>2022-05-12T14:26:07Z</time>
      </trkpt>
      <trkpt lat="43.68357" lon="3.83235">
        <ele>85.5</ele>
        <time>2022-05-12T14:26:17Z</time>
      </trkpt>
      <trkpt lat="43.68325" lon="3.83252">
        <ele>83</ele>
        <time>2022-05-12T14:26:27Z</time>
      </trkpt>
      <trkpt lat="43.68307" lon="3.83249">
        <ele>83</ele>
        <time>2022-05-12T14:26:37Z</time>
      </trkpt>
      <trkpt lat="43.68284" lon="3.83274">
        <ele>84.8</ele>
        <time>2022-05-12T14:26:47Z</time>
      </trkpt>
      <trkpt lat="43.6826" lon="3.83314">
        <ele>84.8</ele>
        <time>2022-05-12T14:26:57Z</time>
      </trkpt>
      <trkpt lat="43.68225" lon="3.83351">
        <ele>84.6</ele>
        <time>2022-05-12T14:27:07Z</time>
      </trkpt>
      <trkpt lat="43.68194" lon="3.8339">
        <ele>84</ele>
        <time>2022-05-12T14:27:17Z</time>
      </trkpt>
      <trkpt lat="43.68165" lon="3.83438">
        <ele>83.7</ele>
        <time>2022-05-12T14:27:27Z</time>
      </trkpt>
      <trkpt lat="43.6813" lon="3.83485">
        <ele>83.9</ele>
        <time>2022-05-12T14:27:37Z</time>
      </trkpt>
      <trkpt lat="43.68095" lon="3.83544">
        <ele>82</ele>
        <time>2022-05-12T14:27:47Z</time>
      </trkpt>
      <trkpt lat="43.68051" lon="3.83587">
        <ele>82.1</ele>
        <time>2022-05-12T14:27:57Z</time>
      </trkpt>
      <trkpt lat="43.6801" lon="3.83632">
        <ele>81.6</ele>
        <time>2022-05-12T14:28:07Z</time>
      </trkpt>
      <trkpt lat="43.67975" lon="3.83678">
        <ele>81.3</ele>
        <time>2022-05-12T14:28:17Z</time>
      </trkpt>
      <trkpt lat="43.67933" lon="3.83724">
        <ele>81.2</ele>
        <time>2022-05-12T14:28:27Z</time>
      </trkpt>
      <trkpt lat="43.67888" lon="3.83758">
        <ele>80.5</ele>
        <time>2022-05-12T14:28:37Z</time>
      </trkpt>
      <trkpt lat="43.67843" lon="3.83789">
        <ele>80.2</ele>
        <time>2022-05-12T14:28:47Z</time>
      </trkpt>
      <trkpt lat="43.67811" lon="3.83842">
        <ele>79.5</ele>
        <time>2022-05-12T14:28:57Z</time>
      </trkpt>
      <trkpt lat="43.67785" lon="3.83884">
        <ele>77.3</ele>
        <time>2022-05-12T14:29:07Z</time>
      </trkpt>
      <trkpt lat="43.67758" lon="3.83877">
        <ele>78.3</ele>
        <time>2022-05-12T14:29:17Z</time>
      </trkpt>
      <trkpt lat="43.67737" lon="3.83865">
        <ele>79.2</ele>
        <time>2022-05-12T14:29:27Z</time>
      </trkpt>
      <trkpt lat="43.67712" lon="3.83845">
        <ele>79.8</ele>
        <time>2022-05-12T14:29:37Z</time>
      </trkpt>
      <trkpt lat="43.67697" lon="3.83835">
        <ele>80</ele>
        <time>2022-05-12T14:29:47Z</time>
      </trkpt>
      <trkpt lat="43.6765" lon="3.83829">
        <ele>77.9</ele>
        <time>2022-05-12T14:30:07Z</time>
      </trkpt>
      <trkpt lat="43.676" lon="3.83827">
        <ele>77.3</ele>
        <time>2022-05-12T14:30:27Z</time>
      </trkpt>
      <trkpt lat="43.67549" lon="3.83827">
        <ele>76.9</ele>
        <time>2022-05-12T14:30:37Z</time>
      </trkpt>
      <trkpt lat="43.67511" lon="3.83816">
        <ele>78.3</ele>
        <time>2022-05-12T14:30:47Z</time>
      </trkpt>
      <trkpt lat="43.67496" lon="3.83781">
        <ele>80.6</ele>
        <time>2022-05-12T14:30:57Z</time>
      </trkpt>
      <trkpt lat="43.67476" lon="3.83752">
        <ele>81.3</ele>
        <time>2022-05-12T14:31:07Z</time>
      </trkpt>
      <trkpt lat="43.67446" lon="3.83743">
        <ele>83.4</ele>
        <time>2022-05-12T14:31:17Z</time>
      </trkpt>
      <trkpt lat="43.6742" lon="3.83736">
        <ele>85.3</ele>
        <time>2022-05-12T14:31:27Z</time>
      </trkpt>
      <trkpt lat="43.67402" lon="3.83735">
        <ele>85.8</ele>
        <time>2022-05-12T14:31:37Z</time>
      </trkpt>
      <trkpt lat="43.67376" lon="3.83714">
        <ele>86</ele>
        <time>2022-05-12T14:31:47Z</time>
      </trkpt>
      <trkpt lat="43.67349" lon="3.83692">
        <ele>84</ele>
        <time>2022-05-12T14:32:07Z</time>
      </trkpt>
      <trkpt lat="43.67309" lon="3.83712">
        <ele>82.2</ele>
        <time>2022-05-12T14:32:17Z</time>
      </trkpt>
      <trkpt lat="43.67254" lon="3.83736">
        <ele>78.4</ele>
        <time>2022-05-12T14:32:27Z</time>
      </trkpt>
      <trkpt lat="43.67228" lon="3.83749">
        <ele>76.4</ele>
        <time>2022-05-12T14:32:37Z</time>
      </trkpt>
      <trkpt lat="43.67224" lon="3.83734">
        <ele>76.7</ele>
        <time>2022-05-12T14:32:47Z</time>
      </trkpt>
      <trkpt lat="43.67183" lon="3.83703">
        <ele>77.5</ele>
        <time>2022-05-12T14:32:57Z</time>
      </trkpt>
      <trkpt lat="43.67145" lon="3.83675">
        <ele>78.5</ele>
        <time>2022-05-12T14:33:07Z</time>
      </trkpt>
      <trkpt lat="43.67109" lon="3.83653">
        <ele>80.1</ele>
        <time>2022-05-12T14:33:17Z</time>
      </trkpt>
      <trkpt lat="43.67088" lon="3.83645">
        <ele>81.8</ele>
        <time>2022-05-12T14:33:27Z</time>
      </trkpt>
      <trkpt lat="43.67066" lon="3.83637">
        <ele>80.8</ele>
        <time>2022-05-12T14:33:37Z</time>
      </trkpt>
      <trkpt lat="43.67054" lon="3.83638">
        <ele>79.9</ele>
        <time>2022-05-12T14:33:47Z</time>
      </trkpt>
      <trkpt lat="43.6702" lon="3.83653">
        <ele>79.7</ele>
        <time>2022-05-12T14:34:07Z</time>
      </trkpt>
      <trkpt lat="43.66988" lon="3.83657">
        <ele>78.2</ele>
        <time>2022-05-12T14:34:17Z</time>
      </trkpt>
      <trkpt lat="43.66956" lon="3.83666">
        <ele>76.4</ele>
        <time>2022-05-12T14:34:27Z</time>
      </trkpt>
      <trkpt lat="43.66914" lon="3.83676">
        <ele>75.9</ele>
        <time>2022-05-12T14:34:37Z</time>
      </trkpt>
      <trkpt lat="43.66887" lon="3.83689">
        <ele>75.2</ele>
        <time>2022-05-12T14:34:47Z</time>
      </trkpt>
      <trkpt lat="43.66878" lon="3.83671">
        <ele>76.4</ele>
        <time>2022-05-12T14:34:57Z</time>
      </trkpt>
      <trkpt lat="43.66875" lon="3.8363">
        <ele>77.7</ele>
        <time>2022-05-12T14:35:07Z</time>
      </trkpt>
      <trkpt lat="43.66859" lon="3.83606">
        <ele>79.2</ele>
        <time>2022-05-12T14:35:17Z</time>
      </trkpt>
      <trkpt lat="43.66836" lon="3.83586">
        <ele>80.9</ele>
        <time>2022-05-12T14:35:27Z</time>
      </trkpt>
      <trkpt lat="43.66821" lon="3.83589">
        <ele>82.3</ele>
        <time>2022-05-12T14:35:37Z</time>
      </trkpt>
      <trkpt lat="43.6683" lon="3.83604">
        <ele>82.2</ele>
        <time>2022-05-12T14:35:47Z</time>
      </trkpt>
      <trkpt lat="43.66834" lon="3.83628">
        <ele>82.5</ele>
        <time>2022-05-12T14:35:57Z</time>
      </trkpt>
      <trkpt lat="43.66839" lon="3.83681">
        <ele>81.6</ele>
        <time>2022-05-12T14:36:07Z</time>
      </trkpt>
      <trkpt lat="43.66827" lon="3.83724">
        <ele>81.6</ele>
        <time>2022-05-12T14:36:17Z</time>
      </trkpt>
      <trkpt lat="43.66801" lon="3.83757">
        <ele>83</ele>
        <time>2022-05-12T14:36:27Z</time>
      </trkpt>
      <trkpt lat="43.66774" lon="3.83767">
        <ele>85.5</ele>
        <time>2022-05-12T14:36:37Z</time>
      </trkpt>
      <trkpt lat="43.66753" lon="3.83772">
        <ele>87.6</ele>
        <time>2022-05-12T14:36:47Z</time>
      </trkpt>
      <trkpt lat="43.66731" lon="3.83777">
        <ele>88</ele>
        <time>2022-05-12T14:36:57Z</time>
      </trkpt>
      <trkpt lat="43.66707" lon="3.83794">
        <ele>89.7</ele>
        <time>2022-05-12T14:37:07Z</time>
      </trkpt>
      <trkpt lat="43.66682" lon="3.83805">
        <ele>89.5</ele>
        <time>2022-05-12T14:37:17Z</time>
      </trkpt>
      <trkpt lat="43.66655" lon="3.83826">
        <ele>89.7</ele>
        <time>2022-05-12T14:37:27Z</time>
      </trkpt>
      <trkpt lat="43.66616" lon="3.8383">
        <ele>89.1</ele>
        <time>2022-05-12T14:37:37Z</time>
      </trkpt>
      <trkpt lat="43.66588" lon="3.83837">
        <ele>86.7</ele>
        <time>2022-05-12T14:37:47Z</time>
      </trkpt>
      <trkpt lat="43.66572" lon="3.83797">
        <ele>83.9</ele>
        <time>2022-05-12T14:37:57Z</time>
      </trkpt>
      <trkpt lat="43.66523" lon="3.83836">
        <ele>78.8</ele>
        <time>2022-05-12T14:38:07Z</time>
      </trkpt>
      <trkpt lat="43.66468" lon="3.83845">
        <ele>77.7</ele>
        <time>2022-05-12T14:38:17Z</time>
      </trkpt>
      <trkpt lat="43.6641" lon="3.8387">
        <ele>74.1</ele>
        <time>2022-05-12T14:38:27Z</time>
      </trkpt>
      <trkpt lat="43.66339" lon="3.83915">
        <ele>69.3</ele>
        <time>2022-05-12T14:38:37Z</time>
      </trkpt>
      <trkpt lat="43.66308" lon="3.83945">
        <ele>67.1</ele>
        <time>2022-05-12T14:38:47Z</time>
      </trkpt>
      <trkpt lat="43.66305" lon="3.83985">
        <ele>65.5</ele>
        <time>2022-05-12T14:38:57Z</time>
      </trkpt>
      <trkpt lat="43.66307" lon="3.8402">
        <ele>65.1</ele>
        <time>2022-05-12T14:39:17Z</time>
      </trkpt>
      <trkpt lat="43.66293" lon="3.84077">
        <ele>63.8</ele>
        <time>2022-05-12T14:39:37Z</time>
      </trkpt>
      <trkpt lat="43.66288" lon="3.8415">
        <ele>62</ele>
        <time>2022-05-12T14:39:47Z</time>
      </trkpt>
      <trkpt lat="43.66281" lon="3.84235">
        <ele>60.7</ele>
        <time>2022-05-12T14:39:57Z</time>
      </trkpt>
      <trkpt lat="43.66254" lon="3.84306">
        <ele>59.7</ele>
        <time>2022-05-12T14:40:07Z</time>
      </trkpt>
      <trkpt lat="43.66222" lon="3.84363">
        <ele>58.9</ele>
        <time>2022-05-12T14:40:17Z</time>
      </trkpt>
      <trkpt lat="43.66198" lon="3.84414">
        <ele>58.9</ele>
        <time>2022-05-12T14:40:27Z</time>
      </trkpt>
      <trkpt lat="43.66157" lon="3.84447">
        <ele>58.9</ele>
        <time>2022-05-12T14:40:37Z</time>
      </trkpt>
      <trkpt lat="43.66116" lon="3.84479">
        <ele>59</ele>
        <time>2022-05-12T14:40:47Z</time>
      </trkpt>
      <trkpt lat="43.66085" lon="3.84515">
        <ele>60.3</ele>
        <time>2022-05-12T14:40:57Z</time>
      </trkpt>
      <trkpt lat="43.66068" lon="3.84566">
        <ele>62.3</ele>
        <time>2022-05-12T14:41:07Z</time>
      </trkpt>
      <trkpt lat="43.66055" lon="3.84631">
        <ele>59.8</ele>
        <time>2022-05-12T14:41:17Z</time>
      </trkpt>
      <trkpt lat="43.66039" lon="3.84689">
        <ele>59.4</ele>
        <time>2022-05-12T14:41:27Z</time>
      </trkpt>
      <trkpt lat="43.66016" lon="3.8473">
        <ele>60.1</ele>
        <time>2022-05-12T14:41:37Z</time>
      </trkpt>
      <trkpt lat="43.65976" lon="3.8478">
        <ele>58.2</ele>
        <time>2022-05-12T14:41:47Z</time>
      </trkpt>
      <trkpt lat="43.65978" lon="3.84824">
        <ele>54.7</ele>
        <time>2022-05-12T14:41:57Z</time>
      </trkpt>
      <trkpt lat="43.65992" lon="3.84878">
        <ele>54.8</ele>
        <time>2022-05-12T14:42:07Z</time>
      </trkpt>
      <trkpt lat="43.65952" lon="3.84926">
        <ele>54.1</ele>
        <time>2022-05-12T14:42:17Z</time>
      </trkpt>
      <trkpt lat="43.65912" lon="3.84973">
        <ele>52.9</ele>
        <time>2022-05-12T14:42:27Z</time>
      </trkpt>
      <trkpt lat="43.65871" lon="3.8502">
        <ele>52.4</ele>
        <time>2022-05-12T14:42:37Z</time>
      </trkpt>
      <trkpt lat="43.65828" lon="3.85071">
        <ele>52.4</ele>
        <time>2022-05-12T14:42:47Z</time>
      </trkpt>
      <trkpt lat="43.65786" lon="3.85115">
        <ele>52.1</ele>
        <time>2022-05-12T14:42:57Z</time>
      </trkpt>
      <trkpt lat="43.6574" lon="3.85151">
        <ele>51.3</ele>
        <time>2022-05-12T14:43:07Z</time>
      </trkpt>
      <trkpt lat="43.6569" lon="3.85182">
        <ele>50.8</ele>
        <time>2022-05-12T14:43:17Z</time>
      </trkpt>
      <trkpt lat="43.65646" lon="3.85229">
        <ele>50.5</ele>
        <time>2022-05-12T14:43:27Z</time>
      </trkpt>
      <trkpt lat="43.65612" lon="3.8529">
        <ele>49.5</ele>
        <time>2022-05-12T14:43:37Z</time>
      </trkpt>
      <trkpt lat="43.65582" lon="3.85354">
        <ele>48</ele>
        <time>2022-05-12T14:43:47Z</time>
      </trkpt>
      <trkpt lat="43.65554" lon="3.85418">
        <ele>48</ele>
        <time>2022-05-12T14:43:57Z</time>
      </trkpt>
      <trkpt lat="43.65532" lon="3.85486">
        <ele>48</ele>
        <time>2022-05-12T14:44:07Z</time>
      </trkpt>
      <trkpt lat="43.65514" lon="3.85533">
        <ele>48.7</ele>
        <time>2022-05-12T14:44:17Z</time>
      </trkpt>
      <trkpt lat="43.65483" lon="3.85561">
        <ele>48.5</ele>
        <time>2022-05-12T14:44:27Z</time>
      </trkpt>
      <trkpt lat="43.65441" lon="3.85583">
        <ele>48.6</ele>
        <time>2022-05-12T14:44:37Z</time>
      </trkpt>
      <trkpt lat="43.65398" lon="3.85622">
        <ele>47.8</ele>
        <time>2022-05-12T14:44:47Z</time>
      </trkpt>
      <trkpt lat="43.65357" lon="3.8567">
        <ele>46.5</ele>
        <time>2022-05-12T14:44:57Z</time>
      </trkpt>
      <trkpt lat="43.65344" lon="3.85693">
        <ele>44.6</ele>
        <time>2022-05-12T15:02:07Z</time>
      </trkpt>
      <trkpt lat="43.6534" lon="3.85729">
        <ele>44.7</ele>
        <time>2022-05-12T15:02:27Z</time>
      </trkpt>
      <trkpt lat="43.6531" lon="3.85792">
        <ele>43.6</ele>
        <time>2022-05-12T15:02:37Z</time>
      </trkpt>
      <trkpt lat="43.65287" lon="3.85855">
        <ele>43.8</ele>
        <time>2022-05-12T15:02:47Z</time>
      </trkpt>
      <trkpt lat="43.65281" lon="3.85888">
        <ele>44.2</ele>
        <time>2022-05-12T15:03:17Z</time>
      </trkpt>
      <trkpt lat="43.65295" lon="3.85939">
        <ele>45.7</ele>
        <time>2022-05-12T15:03:27Z</time>
      </trkpt>
      <trkpt lat="43.65302" lon="3.85998">
        <ele>46.6</ele>
        <time>2022-05-12T15:03:37Z</time>
      </trkpt>
      <trkpt lat="43.65291" lon="3.86057">
        <ele>45.9</ele>
        <time>2022-05-12T15:03:47Z</time>
      </trkpt>
      <trkpt lat="43.65257" lon="3.86103">
        <ele>45</ele>
        <time>2022-05-12T15:03:57Z</time>
      </trkpt>
      <trkpt lat="43.65216" lon="3.86138">
        <ele>44</ele>
        <time>2022-05-12T15:04:07Z</time>
      </trkpt>
      <trkpt lat="43.65198" lon="3.86197">
        <ele>44.4</ele>
        <time>2022-05-12T15:04:17Z</time>
      </trkpt>
      <trkpt lat="43.65185" lon="3.86268">
        <ele>44</ele>
        <time>2022-05-12T15:04:27Z</time>
      </trkpt>
      <trkpt lat="43.65174" lon="3.86329">
        <ele>45.2</ele>
        <time>2022-05-12T15:04:37Z</time>
      </trkpt>
      <trkpt lat="43.65167" lon="3.86361">
        <ele>45.1</ele>
        <time>2022-05-12T15:04:47Z</time>
      </trkpt>
      <trkpt lat="43.65156" lon="3.86413">
        <ele>45.8</ele>
        <time>2022-05-12T15:04:57Z</time>
      </trkpt>
      <trkpt lat="43.65148" lon="3.8647">
        <ele>45</ele>
        <time>2022-05-12T15:05:07Z</time>
      </trkpt>
      <trkpt lat="43.65136" lon="3.86543">
        <ele>44</ele>
        <time>2022-05-12T15:05:17Z</time>
      </trkpt>
      <trkpt lat="43.65109" lon="3.86579">
        <ele>44.8</ele>
        <time>2022-05-12T15:05:27Z</time>
      </trkpt>
      <trkpt lat="43.65078" lon="3.86578">
        <ele>44.3</ele>
        <time>2022-05-12T15:05:37Z</time>
      </trkpt>
      <trkpt lat="43.65041" lon="3.86592">
        <ele>43.1</ele>
        <time>2022-05-12T15:05:47Z</time>
      </trkpt>
    </trkseg>
  </trk>
</gpx>